<?xml version='1.0' encoding='UTF-8'?><gpx version="1.1" creator="JPX - https://github.com/jenetics/jpx" xmlns="http://www.topografix.com/GPX/1/1"><trk><trkseg><trkpt lat="43.48014606407904" lon="13.43363526902237"><ele>89.0</ele><time>2026-04-03T17:48:39Z</time></trkpt><trkpt lat="43.48020422880013" lon="13.43351917769081"><ele>89.0</ele><time>2026-04-03T17:48:41Z</time></trkpt><trkpt lat="43.480244833877066" lon="13.433435580069494"><ele>89.0</ele><time>2026-04-03T17:48:42Z</time></trkpt><trkpt lat="43.480294360506264" lon="13.433344368077222"><ele>89.0</ele><time>2026-04-03T17:48:43Z</time></trkpt><trkpt lat="43.480362702895704" lon="13.433230240988935"><ele>89.0</ele><time>2026-04-03T17:48:44Z</time></trkpt><trkpt lat="43.48043514427666" lon="13.433120919055414"><ele>88.75</ele><time>2026-04-03T17:48:45Z</time></trkpt><trkpt lat="43.480521159421066" lon="13.43299538386681"><ele>88.5</ele><time>2026-04-03T17:48:46Z</time></trkpt><trkpt lat="43.48062281736528" lon="13.432867497544782"><ele>88.25</ele><time>2026-04-03T17:48:47Z</time></trkpt><trkpt lat="43.48071460385174" lon="13.432758485438224"><ele>88.0</ele><time>2026-04-03T17:48:48Z</time></trkpt><trkpt lat="43.48080859767152" lon="13.432640551430461"><ele>88.0</ele><time>2026-04-03T17:48:49Z</time></trkpt><trkpt lat="43.48091613836311" lon="13.432509532788128"><ele>88.0</ele><time>2026-04-03T17:48:50Z</time></trkpt><trkpt lat="43.481030980503164" lon="13.432375277098032"><ele>88.0</ele><time>2026-04-03T17:48:51Z</time></trkpt><trkpt lat="43.48115141803586" lon="13.432228410916727"><ele>88.66666666666666</ele><time>2026-04-03T17:48:52Z</time></trkpt><trkpt lat="43.4812652113303" lon="13.432075831605443"><ele>89.33333333333333</ele><time>2026-04-03T17:48:53Z</time></trkpt><trkpt lat="43.481375847738775" lon="13.431917780039683"><ele>90.0</ele><time>2026-04-03T17:48:54Z</time></trkpt><trkpt lat="43.48148030806738" lon="13.431731991460978"><ele>90.0</ele><time>2026-04-03T17:48:55Z</time></trkpt><trkpt lat="43.48155624984552" lon="13.431519460690533"><ele>90.0</ele><time>2026-04-03T17:48:56Z</time></trkpt><trkpt lat="43.48162302214095" lon="13.431338867454189"><ele>90.0</ele><time>2026-04-03T17:48:57Z</time></trkpt><trkpt lat="43.481661956632706" lon="13.431219166047493"><ele>90.0</ele><time>2026-04-03T17:48:58Z</time></trkpt><trkpt lat="43.48172511583617" lon="13.431107985000786"><ele>89.5</ele><time>2026-04-03T17:49:00Z</time></trkpt><trkpt lat="43.48194650097608" lon="13.431226382340746"><ele>89.0</ele><time>2026-04-03T17:49:04Z</time></trkpt><trkpt lat="43.48203160877713" lon="13.431234723274759"><ele>88.5</ele><time>2026-04-03T17:49:05Z</time></trkpt><trkpt lat="43.482096606251986" lon="13.431276606084936"><ele>88.0</ele><time>2026-04-03T17:49:06Z</time></trkpt><trkpt lat="43.482171282853706" lon="13.431297319421647"><ele>89.4</ele><time>2026-04-03T17:49:07Z</time></trkpt><trkpt lat="43.48225214919073" lon="13.431318119300792"><ele>90.80000000000001</ele><time>2026-04-03T17:49:08Z</time></trkpt><trkpt lat="43.48234441386347" lon="13.431341851010762"><ele>92.2</ele><time>2026-04-03T17:49:09Z</time></trkpt><trkpt lat="43.482455315221365" lon="13.431359100291296"><ele>93.6</ele><time>2026-04-03T17:49:10Z</time></trkpt><trkpt lat="43.48257359324886" lon="13.431383864920564"><ele>95.0</ele><time>2026-04-03T17:49:11Z</time></trkpt><trkpt lat="43.48270328434947" lon="13.431415675481926"><ele>95.0</ele><time>2026-04-03T17:49:12Z</time></trkpt><trkpt lat="43.48284069253625" lon="13.431455945262519"><ele>95.0</ele><time>2026-04-03T17:49:13Z</time></trkpt><trkpt lat="43.48298574171433" lon="13.431486206021827"><ele>95.0</ele><time>2026-04-03T17:49:14Z</time></trkpt><trkpt lat="43.48313475222344" lon="13.431520176339399"><ele>95.0</ele><time>2026-04-03T17:49:15Z</time></trkpt><trkpt lat="43.483274551039116" lon="13.431547837556774"><ele>96.5</ele><time>2026-04-03T17:49:16Z</time></trkpt><trkpt lat="43.48341042797827" lon="13.43157807113552"><ele>98.0</ele><time>2026-04-03T17:49:17Z</time></trkpt><trkpt lat="43.48354390137838" lon="13.431638106597726"><ele>99.5</ele><time>2026-04-03T17:49:18Z</time></trkpt><trkpt lat="43.48367039618132" lon="13.431690119658315"><ele>101.0</ele><time>2026-04-03T17:49:19Z</time></trkpt><trkpt lat="43.483811131594" lon="13.431756101999706"><ele>103.25</ele><time>2026-04-03T17:49:20Z</time></trkpt><trkpt lat="43.48394120432863" lon="13.431830172621874"><ele>105.5</ele><time>2026-04-03T17:49:21Z</time></trkpt><trkpt lat="43.48405220041132" lon="13.431905317726908"><ele>107.75</ele><time>2026-04-03T17:49:22Z</time></trkpt><trkpt lat="43.484151821731295" lon="13.431981907781987"><ele>110.0</ele><time>2026-04-03T17:49:23Z</time></trkpt><trkpt lat="43.484225162395845" lon="13.432074295752379"><ele>111.25</ele><time>2026-04-03T17:49:24Z</time></trkpt><trkpt lat="43.484295496281085" lon="13.432191555196543"><ele>112.5</ele><time>2026-04-03T17:49:25Z</time></trkpt><trkpt lat="43.484363482219145" lon="13.432319979179228"><ele>113.75</ele><time>2026-04-03T17:49:26Z</time></trkpt><trkpt lat="43.48443832957798" lon="13.432472738086934"><ele>115.0</ele><time>2026-04-03T17:49:27Z</time></trkpt><trkpt lat="43.48451420985395" lon="13.432621814535983"><ele>115.0</ele><time>2026-04-03T17:49:28Z</time></trkpt><trkpt lat="43.48458851037489" lon="13.432764388421315"><ele>115.0</ele><time>2026-04-03T17:49:29Z</time></trkpt><trkpt lat="43.48467890703166" lon="13.432900472198101"><ele>115.0</ele><time>2026-04-03T17:49:30Z</time></trkpt><trkpt lat="43.484755545576746" lon="13.433050864652218"><ele>115.0</ele><time>2026-04-03T17:49:31Z</time></trkpt><trkpt lat="43.48480778902612" lon="13.43319206678767"><ele>118.0</ele><time>2026-04-03T17:49:32Z</time></trkpt><trkpt lat="43.48486622411998" lon="13.433305759272447"><ele>121.0</ele><time>2026-04-03T17:49:33Z</time></trkpt><trkpt lat="43.484928449754186" lon="13.433425738338006"><ele>124.0</ele><time>2026-04-03T17:49:34Z</time></trkpt><trkpt lat="43.48499860341235" lon="13.433559316996105"><ele>127.0</ele><time>2026-04-03T17:49:35Z</time></trkpt><trkpt lat="43.485077818500315" lon="13.433706043048213"><ele>128.0</ele><time>2026-04-03T17:49:36Z</time></trkpt><trkpt lat="43.485163409423464" lon="13.433856625887927"><ele>129.0</ele><time>2026-04-03T17:49:37Z</time></trkpt><trkpt lat="43.485245970380674" lon="13.433992005055238"><ele>130.0</ele><time>2026-04-03T17:49:38Z</time></trkpt><trkpt lat="43.48532024996884" lon="13.43410599207026"><ele>131.0</ele><time>2026-04-03T17:49:39Z</time></trkpt><trkpt lat="43.48539781371745" lon="13.43419869218033"><ele>132.4</ele><time>2026-04-03T17:49:40Z</time></trkpt><trkpt lat="43.48548177736056" lon="13.434254987825682"><ele>133.8</ele><time>2026-04-03T17:49:41Z</time></trkpt><trkpt lat="43.485575363836645" lon="13.43423529938801"><ele>135.20000000000002</ele><time>2026-04-03T17:49:42Z</time></trkpt><trkpt lat="43.48569293981304" lon="13.434208913267586"><ele>136.6</ele><time>2026-04-03T17:49:43Z</time></trkpt><trkpt lat="43.485809574058656" lon="13.43417985645975"><ele>138.0</ele><time>2026-04-03T17:49:44Z</time></trkpt><trkpt lat="43.48594416042679" lon="13.434148768275522"><ele>138.0</ele><time>2026-04-03T17:49:45Z</time></trkpt><trkpt lat="43.48607873255455" lon="13.434162508977924"><ele>138.0</ele><time>2026-04-03T17:49:46Z</time></trkpt><trkpt lat="43.48619821749591" lon="13.434193311826657"><ele>138.0</ele><time>2026-04-03T17:49:47Z</time></trkpt><trkpt lat="43.48628834968421" lon="13.434254817383488"><ele>138.0</ele><time>2026-04-03T17:49:48Z</time></trkpt><trkpt lat="43.48636861376489" lon="13.434334447262536"><ele>140.0</ele><time>2026-04-03T17:49:49Z</time></trkpt><trkpt lat="43.486454862965715" lon="13.434444486886585"><ele>142.0</ele><time>2026-04-03T17:49:50Z</time></trkpt><trkpt lat="43.48653629934366" lon="13.434573902221713"><ele>144.0</ele><time>2026-04-03T17:49:51Z</time></trkpt><trkpt lat="43.486594649524356" lon="13.434695242166875"><ele>146.0</ele><time>2026-04-03T17:49:52Z</time></trkpt><trkpt lat="43.48665230915929" lon="13.434831680812875"><ele>146.25</ele><time>2026-04-03T17:49:53Z</time></trkpt><trkpt lat="43.486719807038234" lon="13.434980223319263"><ele>146.5</ele><time>2026-04-03T17:49:54Z</time></trkpt><trkpt lat="43.48677236534202" lon="13.435150825003491"><ele>146.75</ele><time>2026-04-03T17:49:55Z</time></trkpt><trkpt lat="43.48682475208429" lon="13.435337065446223"><ele>147.0</ele><time>2026-04-03T17:49:56Z</time></trkpt><trkpt lat="43.486845011306954" lon="13.435546596822116"><ele>146.5</ele><time>2026-04-03T17:49:57Z</time></trkpt><trkpt lat="43.486867177753446" lon="13.435734183227163"><ele>146.0</ele><time>2026-04-03T17:49:58Z</time></trkpt><trkpt lat="43.486901678338725" lon="13.435913020621022"><ele>145.5</ele><time>2026-04-03T17:49:59Z</time></trkpt><trkpt lat="43.486924872955896" lon="13.436126243146012"><ele>145.0</ele><time>2026-04-03T17:50:00Z</time></trkpt><trkpt lat="43.48696166877016" lon="13.43630995631188"><ele>144.5</ele><time>2026-04-03T17:50:01Z</time></trkpt><trkpt lat="43.48700697688362" lon="13.436475523626253"><ele>144.0</ele><time>2026-04-03T17:50:02Z</time></trkpt><trkpt lat="43.48705694825167" lon="13.436627704867703"><ele>143.5</ele><time>2026-04-03T17:50:03Z</time></trkpt><trkpt lat="43.48711107692613" lon="13.436779762773103"><ele>143.0</ele><time>2026-04-03T17:50:04Z</time></trkpt><trkpt lat="43.487184056399336" lon="13.436938236430798"><ele>144.66666666666666</ele><time>2026-04-03T17:50:05Z</time></trkpt><trkpt lat="43.48727451754966" lon="13.437101425031155"><ele>146.33333333333334</ele><time>2026-04-03T17:50:06Z</time></trkpt><trkpt lat="43.487385232804314" lon="13.4372740475591"><ele>148.0</ele><time>2026-04-03T17:50:07Z</time></trkpt><trkpt lat="43.48749359029553" lon="13.437442301338786"><ele>148.0</ele><time>2026-04-03T17:50:08Z</time></trkpt><trkpt lat="43.48758626692191" lon="13.43762971924698"><ele>148.0</ele><time>2026-04-03T17:50:09Z</time></trkpt><trkpt lat="43.487695226264606" lon="13.437813590516315"><ele>148.0</ele><time>2026-04-03T17:50:10Z</time></trkpt><trkpt lat="43.48780829863897" lon="13.437974357903418"><ele>149.0</ele><time>2026-04-03T17:50:11Z</time></trkpt><trkpt lat="43.48791844227365" lon="13.43816782011038"><ele>150.0</ele><time>2026-04-03T17:50:12Z</time></trkpt><trkpt lat="43.48799084356657" lon="13.438341870559155"><ele>151.0</ele><time>2026-04-03T17:50:13Z</time></trkpt><trkpt lat="43.488067151909576" lon="13.438502114472962"><ele>151.75</ele><time>2026-04-03T17:50:14Z</time></trkpt><trkpt lat="43.488131376518815" lon="13.438653798437953"><ele>152.5</ele><time>2026-04-03T17:50:15Z</time></trkpt><trkpt lat="43.48818607451177" lon="13.43879643292651"><ele>153.25</ele><time>2026-04-03T17:50:16Z</time></trkpt><trkpt lat="43.488252540481106" lon="13.438932349464832"><ele>154.0</ele><time>2026-04-03T17:50:17Z</time></trkpt><trkpt lat="43.48832212179886" lon="13.439070197791336"><ele>154.75</ele><time>2026-04-03T17:50:18Z</time></trkpt><trkpt lat="43.488403516584384" lon="13.439194859559235"><ele>155.5</ele><time>2026-04-03T17:50:19Z</time></trkpt><trkpt lat="43.488505018304544" lon="13.439305549437753"><ele>156.25</ele><time>2026-04-03T17:50:20Z</time></trkpt><trkpt lat="43.488622696252634" lon="13.439419011968852"><ele>157.0</ele><time>2026-04-03T17:50:21Z</time></trkpt><trkpt lat="43.48874291223136" lon="13.439506728205345"><ele>158.75</ele><time>2026-04-03T17:50:22Z</time></trkpt><trkpt lat="43.488859044337225" lon="13.439601483684449"><ele>160.5</ele><time>2026-04-03T17:50:23Z</time></trkpt><trkpt lat="43.48897293558698" lon="13.43969425637486"><ele>162.25</ele><time>2026-04-03T17:50:24Z</time></trkpt><trkpt lat="43.48909245316994" lon="13.439775827599458"><ele>164.0</ele><time>2026-04-03T17:50:25Z</time></trkpt><trkpt lat="43.48922195710276" lon="13.439872031239366"><ele>164.75</ele><time>2026-04-03T17:50:26Z</time></trkpt><trkpt lat="43.48934943288693" lon="13.439981776826356"><ele>165.5</ele><time>2026-04-03T17:50:27Z</time></trkpt><trkpt lat="43.48947625713318" lon="13.440099758717036"><ele>166.25</ele><time>2026-04-03T17:50:28Z</time></trkpt><trkpt lat="43.48957791107591" lon="13.440217667793856"><ele>167.0</ele><time>2026-04-03T17:50:29Z</time></trkpt><trkpt lat="43.48968703125636" lon="13.440348007554515"><ele>167.75</ele><time>2026-04-03T17:50:30Z</time></trkpt><trkpt lat="43.48979962961728" lon="13.440480891432296"><ele>168.5</ele><time>2026-04-03T17:50:31Z</time></trkpt><trkpt lat="43.489911584777026" lon="13.440609801805117"><ele>169.25</ele><time>2026-04-03T17:50:32Z</time></trkpt><trkpt lat="43.49001324732139" lon="13.44073262192635"><ele>170.0</ele><time>2026-04-03T17:50:33Z</time></trkpt><trkpt lat="43.49009917247635" lon="13.440885730069306"><ele>170.0</ele><time>2026-04-03T17:50:34Z</time></trkpt><trkpt lat="43.490196191476535" lon="13.441039017213654"><ele>170.0</ele><time>2026-04-03T17:50:35Z</time></trkpt><trkpt lat="43.49029681252683" lon="13.441202628512126"><ele>170.0</ele><time>2026-04-03T17:50:36Z</time></trkpt><trkpt lat="43.4904028233532" lon="13.441384913902265"><ele>171.0</ele><time>2026-04-03T17:50:37Z</time></trkpt><trkpt lat="43.49051568499903" lon="13.44155615427843"><ele>172.0</ele><time>2026-04-03T17:50:38Z</time></trkpt><trkpt lat="43.49062222278486" lon="13.441732414386504"><ele>173.0</ele><time>2026-04-03T17:50:39Z</time></trkpt><trkpt lat="43.49071751265148" lon="13.441903342565933"><ele>173.0</ele><time>2026-04-03T17:50:40Z</time></trkpt><trkpt lat="43.49080467684564" lon="13.442059638883531"><ele>173.0</ele><time>2026-04-03T17:50:41Z</time></trkpt><trkpt lat="43.49090475078297" lon="13.44220424990142"><ele>173.0</ele><time>2026-04-03T17:50:42Z</time></trkpt><trkpt lat="43.49099671269143" lon="13.442340824990023"><ele>173.0</ele><time>2026-04-03T17:50:43Z</time></trkpt><trkpt lat="43.491074213426046" lon="13.442471420481043"><ele>172.5</ele><time>2026-04-03T17:50:44Z</time></trkpt><trkpt lat="43.49116422092708" lon="13.442569388965081"><ele>172.0</ele><time>2026-04-03T17:50:45Z</time></trkpt><trkpt lat="43.491262826364085" lon="13.44265668495467"><ele>171.5</ele><time>2026-04-03T17:50:46Z</time></trkpt><trkpt lat="43.491373628541325" lon="13.442729163480278"><ele>171.0</ele><time>2026-04-03T17:50:47Z</time></trkpt><trkpt lat="43.49150687567508" lon="13.442784187463547"><ele>172.33333333333334</ele><time>2026-04-03T17:50:48Z</time></trkpt><trkpt lat="43.491654531991244" lon="13.442819172026338"><ele>173.66666666666669</ele><time>2026-04-03T17:50:49Z</time></trkpt><trkpt lat="43.49180224019854" lon="13.442822654159368"><ele>175.0</ele><time>2026-04-03T17:50:50Z</time></trkpt><trkpt lat="43.49196563463436" lon="13.442814191215117"><ele>176.66666666666669</ele><time>2026-04-03T17:50:51Z</time></trkpt><trkpt lat="43.492117926888334" lon="13.44280353176984"><ele>178.33333333333334</ele><time>2026-04-03T17:50:52Z</time></trkpt><trkpt lat="43.49227296299422" lon="13.442798181491211"><ele>180.0</ele><time>2026-04-03T17:50:53Z</time></trkpt><trkpt lat="43.492423372314704" lon="13.442806646361271"><ele>180.0</ele><time>2026-04-03T17:50:54Z</time></trkpt><trkpt lat="43.49257152890254" lon="13.44282180138522"><ele>180.0</ele><time>2026-04-03T17:50:55Z</time></trkpt><trkpt lat="43.49272535813561" lon="13.442847783583682"><ele>180.0</ele><time>2026-04-03T17:50:56Z</time></trkpt><trkpt lat="43.49287722220386" lon="13.442870843562734"><ele>181.75</ele><time>2026-04-03T17:50:57Z</time></trkpt><trkpt lat="43.493003160193815" lon="13.442887536363061"><ele>183.5</ele><time>2026-04-03T17:50:58Z</time></trkpt><trkpt lat="43.493100856646244" lon="13.44290698283591"><ele>185.25</ele><time>2026-04-03T17:50:59Z</time></trkpt><trkpt lat="43.493208375155" lon="13.442928555416026"><ele>187.0</ele><time>2026-04-03T17:51:00Z</time></trkpt><trkpt lat="43.49332219092171" lon="13.442960293346296"><ele>189.25</ele><time>2026-04-03T17:51:01Z</time></trkpt><trkpt lat="43.49343915257298" lon="13.44299511935253"><ele>191.5</ele><time>2026-04-03T17:51:02Z</time></trkpt><trkpt lat="43.493542046605704" lon="13.443034023229819"><ele>193.75</ele><time>2026-04-03T17:51:03Z</time></trkpt><trkpt lat="43.49364335651293" lon="13.443104683151875"><ele>196.0</ele><time>2026-04-03T17:51:04Z</time></trkpt><trkpt lat="43.49375491926272" lon="13.443148014548507"><ele>195.33333333333331</ele><time>2026-04-03T17:51:05Z</time></trkpt><trkpt lat="43.49387006390695" lon="13.443227771765226"><ele>194.66666666666669</ele><time>2026-04-03T17:51:06Z</time></trkpt><trkpt lat="43.49408041514179" lon="13.443435230583331"><ele>194.0</ele><time>2026-04-03T17:51:08Z</time></trkpt><trkpt lat="43.49419068305121" lon="13.443518081495581"><ele>194.0</ele><time>2026-04-03T17:51:09Z</time></trkpt><trkpt lat="43.49427596139225" lon="13.443612057443188"><ele>194.0</ele><time>2026-04-03T17:51:10Z</time></trkpt><trkpt lat="43.4943642104072" lon="13.443722943727368"><ele>194.0</ele><time>2026-04-03T17:51:11Z</time></trkpt><trkpt lat="43.49446823346701" lon="13.443798011300508"><ele>194.0</ele><time>2026-04-03T17:51:12Z</time></trkpt><trkpt lat="43.49456553314172" lon="13.443868081769159"><ele>195.39999999999998</ele><time>2026-04-03T17:51:13Z</time></trkpt><trkpt lat="43.4946715531066" lon="13.443914259688206"><ele>196.8</ele><time>2026-04-03T17:51:14Z</time></trkpt><trkpt lat="43.4947830184447" lon="13.44394281348098"><ele>198.2</ele><time>2026-04-03T17:51:15Z</time></trkpt><trkpt lat="43.4948865747796" lon="13.443969422702835"><ele>199.60000000000002</ele><time>2026-04-03T17:51:16Z</time></trkpt><trkpt lat="43.49497775046432" lon="13.4440020350566"><ele>201.0</ele><time>2026-04-03T17:51:17Z</time></trkpt><trkpt lat="43.49506970162757" lon="13.444046954453146"><ele>201.0</ele><time>2026-04-03T17:51:18Z</time></trkpt><trkpt lat="43.49515996219856" lon="13.444104587373456"><ele>201.0</ele><time>2026-04-03T17:51:19Z</time></trkpt><trkpt lat="43.49523474342315" lon="13.444212204084913"><ele>201.0</ele><time>2026-04-03T17:51:20Z</time></trkpt><trkpt lat="43.495319131928916" lon="13.444308965203378"><ele>201.0</ele><time>2026-04-03T17:51:21Z</time></trkpt><trkpt lat="43.49540462042135" lon="13.444409513974742"><ele>201.0</ele><time>2026-04-03T17:51:22Z</time></trkpt><trkpt lat="43.4955065379223" lon="13.44451465759787"><ele>201.0</ele><time>2026-04-03T17:51:23Z</time></trkpt><trkpt lat="43.495561569224684" lon="13.444643309357073"><ele>201.0</ele><time>2026-04-03T17:51:24Z</time></trkpt><trkpt lat="43.495617289932426" lon="13.444751053113027"><ele>201.0</ele><time>2026-04-03T17:51:25Z</time></trkpt><trkpt lat="43.49568360221127" lon="13.44485064605277"><ele>201.0</ele><time>2026-04-03T17:51:26Z</time></trkpt><trkpt lat="43.49573463151651" lon="13.444974742787457"><ele>201.0</ele><time>2026-04-03T17:51:27Z</time></trkpt><trkpt lat="43.49577945563145" lon="13.445108409851322"><ele>201.0</ele><time>2026-04-03T17:51:28Z</time></trkpt><trkpt lat="43.495842947536744" lon="13.445233364479638"><ele>201.0</ele><time>2026-04-03T17:51:29Z</time></trkpt><trkpt lat="43.49589732676844" lon="13.445363500558091"><ele>201.0</ele><time>2026-04-03T17:51:30Z</time></trkpt><trkpt lat="43.495961484046624" lon="13.445485503084988"><ele>201.0</ele><time>2026-04-03T17:51:31Z</time></trkpt><trkpt lat="43.496017133699986" lon="13.445608857847"><ele>201.0</ele><time>2026-04-03T17:51:32Z</time></trkpt><trkpt lat="43.496077362208766" lon="13.445727099589963"><ele>202.0</ele><time>2026-04-03T17:51:33Z</time></trkpt><trkpt lat="43.49613661814118" lon="13.44583767551445"><ele>203.0</ele><time>2026-04-03T17:51:34Z</time></trkpt><trkpt lat="43.4961900254311" lon="13.445942513763919"><ele>204.0</ele><time>2026-04-03T17:51:35Z</time></trkpt><trkpt lat="43.496230104532444" lon="13.446022122095185"><ele>205.0</ele><time>2026-04-03T17:51:36Z</time></trkpt><trkpt lat="43.49629823222863" lon="13.446133454060243"><ele>206.0</ele><time>2026-04-03T17:51:38Z</time></trkpt><trkpt lat="43.4963371037401" lon="13.44620190982322"><ele>207.0</ele><time>2026-04-03T17:51:40Z</time></trkpt><trkpt lat="43.496476188106584" lon="13.446025768199657"><ele>207.0</ele><time>2026-04-03T17:51:57Z</time></trkpt><trkpt lat="43.496511103216065" lon="13.445921433761324"><ele>207.0</ele><time>2026-04-03T17:51:58Z</time></trkpt><trkpt lat="43.49655225270257" lon="13.445775084247211"><ele>207.0</ele><time>2026-04-03T17:51:59Z</time></trkpt><trkpt lat="43.49659909129507" lon="13.445616353143029"><ele>207.0</ele><time>2026-04-03T17:52:00Z</time></trkpt><trkpt lat="43.49664656069068" lon="13.445436373994633"><ele>207.0</ele><time>2026-04-03T17:52:01Z</time></trkpt><trkpt lat="43.49670067689322" lon="13.445244855827378"><ele>207.0</ele><time>2026-04-03T17:52:02Z</time></trkpt><trkpt lat="43.49676226805602" lon="13.445037381703708"><ele>207.0</ele><time>2026-04-03T17:52:03Z</time></trkpt><trkpt lat="43.49682325425254" lon="13.444821399645383"><ele>205.66666666666669</ele><time>2026-04-03T17:52:04Z</time></trkpt><trkpt lat="43.49688316245213" lon="13.444600189622923"><ele>204.33333333333334</ele><time>2026-04-03T17:52:05Z</time></trkpt><trkpt lat="43.496946288838934" lon="13.44436505446544"><ele>203.0</ele><time>2026-04-03T17:52:06Z</time></trkpt><trkpt lat="43.49701476571844" lon="13.444118898194215"><ele>203.0</ele><time>2026-04-03T17:52:07Z</time></trkpt><trkpt lat="43.49708189146216" lon="13.443878019664073"><ele>203.0</ele><time>2026-04-03T17:52:08Z</time></trkpt><trkpt lat="43.49715283513974" lon="13.443629509609206"><ele>203.0</ele><time>2026-04-03T17:52:09Z</time></trkpt><trkpt lat="43.49722219837873" lon="13.44339213003972"><ele>203.66666666666669</ele><time>2026-04-03T17:52:10Z</time></trkpt><trkpt lat="43.497288556822255" lon="13.443171991895548"><ele>204.33333333333331</ele><time>2026-04-03T17:52:11Z</time></trkpt><trkpt lat="43.49735192212204" lon="13.442961197388426"><ele>205.0</ele><time>2026-04-03T17:52:12Z</time></trkpt><trkpt lat="43.49741129459544" lon="13.442748322615573"><ele>205.0</ele><time>2026-04-03T17:52:13Z</time></trkpt><trkpt lat="43.49747158715961" lon="13.442532722056065"><ele>205.0</ele><time>2026-04-03T17:52:14Z</time></trkpt><trkpt lat="43.49752723228837" lon="13.442325343876607"><ele>205.0</ele><time>2026-04-03T17:52:15Z</time></trkpt><trkpt lat="43.49757143881668" lon="13.442112748227078"><ele>204.33333333333331</ele><time>2026-04-03T17:52:16Z</time></trkpt><trkpt lat="43.49762140488265" lon="13.4418971085672"><ele>203.66666666666669</ele><time>2026-04-03T17:52:17Z</time></trkpt><trkpt lat="43.497652246199934" lon="13.4416750120616"><ele>203.0</ele><time>2026-04-03T17:52:18Z</time></trkpt><trkpt lat="43.49767409744131" lon="13.441452358043135"><ele>202.33333333333334</ele><time>2026-04-03T17:52:19Z</time></trkpt><trkpt lat="43.49769737494437" lon="13.441235368573384"><ele>201.66666666666669</ele><time>2026-04-03T17:52:20Z</time></trkpt><trkpt lat="43.49772505180939" lon="13.441019632268635"><ele>201.0</ele><time>2026-04-03T17:52:21Z</time></trkpt><trkpt lat="43.49776174966265" lon="13.440805807437252"><ele>201.0</ele><time>2026-04-03T17:52:22Z</time></trkpt><trkpt lat="43.497803920092274" lon="13.440593679155294"><ele>201.0</ele><time>2026-04-03T17:52:23Z</time></trkpt><trkpt lat="43.49784996053824" lon="13.440380613238911"><ele>201.0</ele><time>2026-04-03T17:52:24Z</time></trkpt><trkpt lat="43.49792539966166" lon="13.440191325084175"><ele>198.66666666666669</ele><time>2026-04-03T17:52:25Z</time></trkpt><trkpt lat="43.49799784105165" lon="13.439996415244535"><ele>196.33333333333334</ele><time>2026-04-03T17:52:26Z</time></trkpt><trkpt lat="43.498057683573606" lon="13.439794997785135"><ele>194.0</ele><time>2026-04-03T17:52:27Z</time></trkpt><trkpt lat="43.4981354384025" lon="13.439601084479667"><ele>194.0</ele><time>2026-04-03T17:52:28Z</time></trkpt><trkpt lat="43.4982086622336" lon="13.439409419338494"><ele>194.0</ele><time>2026-04-03T17:52:29Z</time></trkpt><trkpt lat="43.49827958983939" lon="13.439229292601997"><ele>194.0</ele><time>2026-04-03T17:52:30Z</time></trkpt><trkpt lat="43.498348630618274" lon="13.439062953127065"><ele>194.0</ele><time>2026-04-03T17:52:31Z</time></trkpt><trkpt lat="43.498419807294695" lon="13.438900064860464"><ele>193.5</ele><time>2026-04-03T17:52:32Z</time></trkpt><trkpt lat="43.49849156233649" lon="13.438737365756511"><ele>193.0</ele><time>2026-04-03T17:52:33Z</time></trkpt><trkpt lat="43.498567784279" lon="13.438572544709997"><ele>192.5</ele><time>2026-04-03T17:52:34Z</time></trkpt><trkpt lat="43.49867004353335" lon="13.438431338044186"><ele>192.0</ele><time>2026-04-03T17:52:35Z</time></trkpt><trkpt lat="43.49874634959051" lon="13.438269570046959"><ele>191.0</ele><time>2026-04-03T17:52:36Z</time></trkpt><trkpt lat="43.49884956021912" lon="13.438133582676818"><ele>190.0</ele><time>2026-04-03T17:52:37Z</time></trkpt><trkpt lat="43.49895454512192" lon="13.437994160849211"><ele>189.0</ele><time>2026-04-03T17:52:38Z</time></trkpt><trkpt lat="43.499063800357085" lon="13.437855007592105"><ele>188.0</ele><time>2026-04-03T17:52:39Z</time></trkpt><trkpt lat="43.49916626217938" lon="13.43773980364208"><ele>190.0</ele><time>2026-04-03T17:52:40Z</time></trkpt><trkpt lat="43.49924964890882" lon="13.437594225582913"><ele>192.0</ele><time>2026-04-03T17:52:41Z</time></trkpt><trkpt lat="43.49934286457151" lon="13.437468034709807"><ele>194.0</ele><time>2026-04-03T17:52:42Z</time></trkpt><trkpt lat="43.499441760800494" lon="13.43733549355509"><ele>196.0</ele><time>2026-04-03T17:52:43Z</time></trkpt><trkpt lat="43.49953121958515" lon="13.437199010524182"><ele>195.75</ele><time>2026-04-03T17:52:44Z</time></trkpt><trkpt lat="43.499621017224584" lon="13.43707390569427"><ele>195.5</ele><time>2026-04-03T17:52:45Z</time></trkpt><trkpt lat="43.49970924926896" lon="13.436962391017907"><ele>195.25</ele><time>2026-04-03T17:52:46Z</time></trkpt><trkpt lat="43.49979163767272" lon="13.436849637268152"><ele>195.0</ele><time>2026-04-03T17:52:47Z</time></trkpt><trkpt lat="43.499872929714094" lon="13.436737332079765"><ele>195.0</ele><time>2026-04-03T17:52:48Z</time></trkpt><trkpt lat="43.499952977043336" lon="13.436617085639982"><ele>195.0</ele><time>2026-04-03T17:52:49Z</time></trkpt><trkpt lat="43.500040660391065" lon="13.43649606123604"><ele>195.0</ele><time>2026-04-03T17:52:50Z</time></trkpt><trkpt lat="43.500137593663645" lon="13.436379169609348"><ele>195.0</ele><time>2026-04-03T17:52:51Z</time></trkpt><trkpt lat="43.500238621507314" lon="13.436268503214322"><ele>196.0</ele><time>2026-04-03T17:52:52Z</time></trkpt><trkpt lat="43.500345886561576" lon="13.436147264708046"><ele>197.0</ele><time>2026-04-03T17:52:53Z</time></trkpt><trkpt lat="43.50045625498223" lon="13.436036081161356"><ele>198.0</ele><time>2026-04-03T17:52:54Z</time></trkpt><trkpt lat="43.50057381279175" lon="13.435946052015236"><ele>199.0</ele><time>2026-04-03T17:52:55Z</time></trkpt><trkpt lat="43.50067384325781" lon="13.435829615676317"><ele>199.25</ele><time>2026-04-03T17:52:56Z</time></trkpt><trkpt lat="43.50078300156494" lon="13.435732539744652"><ele>199.5</ele><time>2026-04-03T17:52:57Z</time></trkpt><trkpt lat="43.500891412894056" lon="13.43564918374297"><ele>199.75</ele><time>2026-04-03T17:52:58Z</time></trkpt><trkpt lat="43.50100600476413" lon="13.435580730335223"><ele>200.0</ele><time>2026-04-03T17:52:59Z</time></trkpt><trkpt lat="43.50110815829904" lon="13.4355097075334"><ele>200.75</ele><time>2026-04-03T17:53:00Z</time></trkpt><trkpt lat="43.50121673635745" lon="13.435445982876633"><ele>201.5</ele><time>2026-04-03T17:53:01Z</time></trkpt><trkpt lat="43.50132833912508" lon="13.435395592780868"><ele>202.25</ele><time>2026-04-03T17:53:02Z</time></trkpt><trkpt lat="43.50143507428825" lon="13.43533408030355"><ele>203.0</ele><time>2026-04-03T17:53:03Z</time></trkpt><trkpt lat="43.50154849979367" lon="13.435287751733691"><ele>203.0</ele><time>2026-04-03T17:53:04Z</time></trkpt><trkpt lat="43.50165915066901" lon="13.435246174432644"><ele>203.0</ele><time>2026-04-03T17:53:05Z</time></trkpt><trkpt lat="43.50176378260971" lon="13.435175068174011"><ele>203.0</ele><time>2026-04-03T17:53:06Z</time></trkpt><trkpt lat="43.50185901074187" lon="13.435107283924316"><ele>203.0</ele><time>2026-04-03T17:53:07Z</time></trkpt><trkpt lat="43.50195279490174" lon="13.435042633491069"><ele>203.0</ele><time>2026-04-03T17:53:08Z</time></trkpt><trkpt lat="43.50204455817765" lon="13.434983391328092"><ele>202.83333333333334</ele><time>2026-04-03T17:53:09Z</time></trkpt><trkpt lat="43.5021397195526" lon="13.43492051258559"><ele>202.66666666666669</ele><time>2026-04-03T17:53:10Z</time></trkpt><trkpt lat="43.502230023766586" lon="13.4348665680549"><ele>202.5</ele><time>2026-04-03T17:53:11Z</time></trkpt><trkpt lat="43.50231023932239" lon="13.434819037122422"><ele>202.33333333333331</ele><time>2026-04-03T17:53:12Z</time></trkpt><trkpt lat="43.502377428225955" lon="13.434770451600988"><ele>202.16666666666666</ele><time>2026-04-03T17:53:13Z</time></trkpt><trkpt lat="43.50244200647053" lon="13.43472716427207"><ele>202.0</ele><time>2026-04-03T17:53:14Z</time></trkpt><trkpt lat="43.50251491153134" lon="13.434683830254356"><ele>203.2</ele><time>2026-04-03T17:53:15Z</time></trkpt><trkpt lat="43.5025958281999" lon="13.434636521119927"><ele>204.39999999999998</ele><time>2026-04-03T17:53:16Z</time></trkpt><trkpt lat="43.50268255427938" lon="13.434575773901068"><ele>205.60000000000002</ele><time>2026-04-03T17:53:17Z</time></trkpt><trkpt lat="43.502780536510066" lon="13.434507600274063"><ele>206.8</ele><time>2026-04-03T17:53:18Z</time></trkpt><trkpt lat="43.50289137003181" lon="13.434434139764663"><ele>208.0</ele><time>2026-04-03T17:53:19Z</time></trkpt><trkpt lat="43.503007279345326" lon="13.434357782847648"><ele>209.0</ele><time>2026-04-03T17:53:20Z</time></trkpt><trkpt lat="43.503114510014775" lon="13.434265018872772"><ele>210.0</ele><time>2026-04-03T17:53:21Z</time></trkpt><trkpt lat="43.503221002712536" lon="13.434175537883213"><ele>211.0</ele><time>2026-04-03T17:53:22Z</time></trkpt><trkpt lat="43.50332798502524" lon="13.434079540387932"><ele>212.0</ele><time>2026-04-03T17:53:23Z</time></trkpt><trkpt lat="43.503438158619616" lon="13.433991743335595"><ele>212.0</ele><time>2026-04-03T17:53:24Z</time></trkpt><trkpt lat="43.50354755957165" lon="13.433903004431308"><ele>212.0</ele><time>2026-04-03T17:53:25Z</time></trkpt><trkpt lat="43.50366780164448" lon="13.433833244740024"><ele>212.0</ele><time>2026-04-03T17:53:26Z</time></trkpt><trkpt lat="43.50377202860534" lon="13.433735601318423"><ele>212.0</ele><time>2026-04-03T17:53:27Z</time></trkpt><trkpt lat="43.50388465613723" lon="13.4336712840729"><ele>212.5</ele><time>2026-04-03T17:53:28Z</time></trkpt><trkpt lat="43.50400273067629" lon="13.433610074538622"><ele>213.0</ele><time>2026-04-03T17:53:29Z</time></trkpt><trkpt lat="43.5041147511876" lon="13.433545784988091"><ele>213.5</ele><time>2026-04-03T17:53:30Z</time></trkpt><trkpt lat="43.50422590495374" lon="13.433481682491136"><ele>214.0</ele><time>2026-04-03T17:53:31Z</time></trkpt><trkpt lat="43.504339738347" lon="13.433415122087649"><ele>214.0</ele><time>2026-04-03T17:53:32Z</time></trkpt><trkpt lat="43.504448489138795" lon="13.433346956731238"><ele>214.0</ele><time>2026-04-03T17:53:33Z</time></trkpt><trkpt lat="43.50455613863574" lon="13.433280558048057"><ele>214.0</ele><time>2026-04-03T17:53:34Z</time></trkpt><trkpt lat="43.50466619164331" lon="13.433213665114064"><ele>214.0</ele><time>2026-04-03T17:53:35Z</time></trkpt><trkpt lat="43.504785930889575" lon="13.433144806257486"><ele>214.0</ele><time>2026-04-03T17:53:36Z</time></trkpt><trkpt lat="43.504905335738144" lon="13.43306801743992"><ele>214.0</ele><time>2026-04-03T17:53:37Z</time></trkpt><trkpt lat="43.505013823085754" lon="13.43300489742795"><ele>214.0</ele><time>2026-04-03T17:53:38Z</time></trkpt><trkpt lat="43.505127048616856" lon="13.432941310014408"><ele>214.0</ele><time>2026-04-03T17:53:39Z</time></trkpt><trkpt lat="43.50524430922682" lon="13.432866267666082"><ele>215.0</ele><time>2026-04-03T17:53:40Z</time></trkpt><trkpt lat="43.505365499723666" lon="13.432799595203445"><ele>216.0</ele><time>2026-04-03T17:53:41Z</time></trkpt><trkpt lat="43.50549230754496" lon="13.43273568591486"><ele>217.0</ele><time>2026-04-03T17:53:42Z</time></trkpt><trkpt lat="43.50560610045715" lon="13.432676220255232"><ele>218.0</ele><time>2026-04-03T17:53:43Z</time></trkpt><trkpt lat="43.50572393537593" lon="13.43262623132669"><ele>218.25</ele><time>2026-04-03T17:53:44Z</time></trkpt><trkpt lat="43.50585244022911" lon="13.432614269214904"><ele>218.5</ele><time>2026-04-03T17:53:45Z</time></trkpt><trkpt lat="43.505971120223286" lon="13.432596549676202"><ele>218.75</ele><time>2026-04-03T17:53:46Z</time></trkpt><trkpt lat="43.506100174102" lon="13.432595775017443"><ele>219.0</ele><time>2026-04-03T17:53:47Z</time></trkpt><trkpt lat="43.5062294671592" lon="13.432597735655373"><ele>218.25</ele><time>2026-04-03T17:53:48Z</time></trkpt><trkpt lat="43.50636428678181" lon="13.43258509872155"><ele>217.5</ele><time>2026-04-03T17:53:49Z</time></trkpt><trkpt lat="43.50649352804012" lon="13.432588401250916"><ele>216.75</ele><time>2026-04-03T17:53:50Z</time></trkpt><trkpt lat="43.506624894637696" lon="13.432591146290656"><ele>216.0</ele><time>2026-04-03T17:53:51Z</time></trkpt><trkpt lat="43.50675842361768" lon="13.43258628654192"><ele>216.0</ele><time>2026-04-03T17:53:52Z</time></trkpt><trkpt lat="43.506889945478136" lon="13.432576991010178"><ele>216.0</ele><time>2026-04-03T17:53:53Z</time></trkpt><trkpt lat="43.50702071773628" lon="13.432576651295275"><ele>216.0</ele><time>2026-04-03T17:53:54Z</time></trkpt><trkpt lat="43.50714904217618" lon="13.432578934234071"><ele>216.0</ele><time>2026-04-03T17:53:55Z</time></trkpt><trkpt lat="43.50727910777994" lon="13.432572514425939"><ele>216.25</ele><time>2026-04-03T17:53:56Z</time></trkpt><trkpt lat="43.50740693873238" lon="13.432562893506558"><ele>216.5</ele><time>2026-04-03T17:53:57Z</time></trkpt><trkpt lat="43.50752342753786" lon="13.432557488864001"><ele>216.75</ele><time>2026-04-03T17:53:58Z</time></trkpt><trkpt lat="43.5076489117481" lon="13.432554261927887"><ele>217.0</ele><time>2026-04-03T17:53:59Z</time></trkpt><trkpt lat="43.507757514697204" lon="13.43254372523637"><ele>217.0</ele><time>2026-04-03T17:54:00Z</time></trkpt><trkpt lat="43.507851939414465" lon="13.432512452021331"><ele>217.0</ele><time>2026-04-03T17:54:01Z</time></trkpt><trkpt lat="43.507930732221084" lon="13.432453716186213"><ele>217.0</ele><time>2026-04-03T17:54:02Z</time></trkpt><trkpt lat="43.507989306932586" lon="13.432366274403819"><ele>217.0</ele><time>2026-04-03T17:54:03Z</time></trkpt><trkpt lat="43.508033573236524" lon="13.4322471273541"><ele>217.0</ele><time>2026-04-03T17:54:04Z</time></trkpt><trkpt lat="43.50807047857759" lon="13.432107099847228"><ele>218.0</ele><time>2026-04-03T17:54:05Z</time></trkpt><trkpt lat="43.50812306462387" lon="13.431965393511183"><ele>219.0</ele><time>2026-04-03T17:54:06Z</time></trkpt><trkpt lat="43.50818701505855" lon="13.43183975859278"><ele>220.0</ele><time>2026-04-03T17:54:07Z</time></trkpt><trkpt lat="43.50826484371714" lon="13.431715642663981"><ele>221.0</ele><time>2026-04-03T17:54:08Z</time></trkpt><trkpt lat="43.50835155918369" lon="13.431611371495553"><ele>221.0</ele><time>2026-04-03T17:54:09Z</time></trkpt><trkpt lat="43.50845293767633" lon="13.431523143411546"><ele>221.0</ele><time>2026-04-03T17:54:10Z</time></trkpt><trkpt lat="43.50855542079576" lon="13.431435689634128"><ele>221.0</ele><time>2026-04-03T17:54:11Z</time></trkpt><trkpt lat="43.508652302050585" lon="13.43134065096436"><ele>221.0</ele><time>2026-04-03T17:54:12Z</time></trkpt><trkpt lat="43.50873911945861" lon="13.431232919872052"><ele>221.5</ele><time>2026-04-03T17:54:13Z</time></trkpt><trkpt lat="43.50882093032821" lon="13.43111699017632"><ele>222.0</ele><time>2026-04-03T17:54:14Z</time></trkpt><trkpt lat="43.508902722709735" lon="13.43098724575166"><ele>222.5</ele><time>2026-04-03T17:54:15Z</time></trkpt><trkpt lat="43.508973852545516" lon="13.430848150463133"><ele>223.0</ele><time>2026-04-03T17:54:16Z</time></trkpt><trkpt lat="43.50903011325801" lon="13.430696222247384"><ele>223.0</ele><time>2026-04-03T17:54:17Z</time></trkpt><trkpt lat="43.509063695718886" lon="13.430523151073714"><ele>223.0</ele><time>2026-04-03T17:54:18Z</time></trkpt><trkpt lat="43.50906391699188" lon="13.430332723293045"><ele>223.0</ele><time>2026-04-03T17:54:19Z</time></trkpt><trkpt lat="43.50905566293138" lon="13.430142261832264"><ele>223.0</ele><time>2026-04-03T17:54:20Z</time></trkpt><trkpt lat="43.509052241483396" lon="13.429906406300345"><ele>222.25</ele><time>2026-04-03T17:54:21Z</time></trkpt><trkpt lat="43.509055654452574" lon="13.429752950351391"><ele>221.5</ele><time>2026-04-03T17:54:22Z</time></trkpt><trkpt lat="43.50905963756728" lon="13.429563801165639"><ele>220.75</ele><time>2026-04-03T17:54:23Z</time></trkpt><trkpt lat="43.5090689601197" lon="13.429388718391978"><ele>220.0</ele><time>2026-04-03T17:54:24Z</time></trkpt><trkpt lat="43.50907749397691" lon="13.429233369652362"><ele>220.0</ele><time>2026-04-03T17:54:25Z</time></trkpt><trkpt lat="43.50909816738091" lon="13.429092685072835"><ele>220.0</ele><time>2026-04-03T17:54:26Z</time></trkpt><trkpt lat="43.509130842703875" lon="13.428966324284229"><ele>220.0</ele><time>2026-04-03T17:54:27Z</time></trkpt><trkpt lat="43.50917184415149" lon="13.4288522000125"><ele>220.0</ele><time>2026-04-03T17:54:28Z</time></trkpt><trkpt lat="43.50921587570814" lon="13.428747481629527"><ele>220.0</ele><time>2026-04-03T17:54:29Z</time></trkpt><trkpt lat="43.509254252091736" lon="13.428653783804942"><ele>220.0</ele><time>2026-04-03T17:54:30Z</time></trkpt><trkpt lat="43.50931730829554" lon="13.428516645909205"><ele>220.0</ele><time>2026-04-03T17:54:32Z</time></trkpt><trkpt lat="43.509398329757914" lon="13.4283983883123"><ele>220.0</ele><time>2026-04-03T17:54:34Z</time></trkpt><trkpt lat="43.50942077308547" lon="13.428289667743138"><ele>220.0</ele><time>2026-04-03T17:54:36Z</time></trkpt><trkpt lat="43.50958682145077" lon="13.42837069201769"><ele>221.4</ele><time>2026-04-03T17:54:37Z</time></trkpt><trkpt lat="43.50965728803229" lon="13.428423215859361"><ele>222.8</ele><time>2026-04-03T17:54:38Z</time></trkpt><trkpt lat="43.50973314976709" lon="13.428496285716278"><ele>224.2</ele><time>2026-04-03T17:54:39Z</time></trkpt><trkpt lat="43.50981627505842" lon="13.428577291958636"><ele>225.6</ele><time>2026-04-03T17:54:40Z</time></trkpt><trkpt lat="43.509913185804386" lon="13.428662483274861"><ele>227.0</ele><time>2026-04-03T17:54:41Z</time></trkpt><trkpt lat="43.51001677937466" lon="13.42875122204155"><ele>229.0</ele><time>2026-04-03T17:54:42Z</time></trkpt><trkpt lat="43.510117561972784" lon="13.428837627391315"><ele>231.0</ele><time>2026-04-03T17:54:43Z</time></trkpt><trkpt lat="43.5102250559933" lon="13.428931893807325"><ele>233.0</ele><time>2026-04-03T17:54:44Z</time></trkpt><trkpt lat="43.510337584934234" lon="13.429008013646493"><ele>235.0</ele><time>2026-04-03T17:54:45Z</time></trkpt><trkpt lat="43.51045148059457" lon="13.429028226963265"><ele>237.75</ele><time>2026-04-03T17:54:46Z</time></trkpt><trkpt lat="43.51058313909711" lon="13.429007796240933"><ele>240.5</ele><time>2026-04-03T17:54:47Z</time></trkpt><trkpt lat="43.510718707589525" lon="13.428970987242423"><ele>243.25</ele><time>2026-04-03T17:54:48Z</time></trkpt><trkpt lat="43.51085818632204" lon="13.428937391514436"><ele>246.0</ele><time>2026-04-03T17:54:49Z</time></trkpt><trkpt lat="43.511000681156794" lon="13.428922855234052"><ele>246.0</ele><time>2026-04-03T17:54:50Z</time></trkpt><trkpt lat="43.51111765784099" lon="13.428941854744188"><ele>246.00000000000003</ele><time>2026-04-03T17:54:51Z</time></trkpt><trkpt lat="43.51120640559296" lon="13.428982826799572"><ele>246.00000000000003</ele><time>2026-04-03T17:54:52Z</time></trkpt><trkpt lat="43.51127548363311" lon="13.429095809910576"><ele>246.0</ele><time>2026-04-03T17:54:53Z</time></trkpt><trkpt lat="43.51134118625371" lon="13.42924365785668"><ele>246.0</ele><time>2026-04-03T17:54:54Z</time></trkpt><trkpt lat="43.51143282824133" lon="13.429378830960198"><ele>246.75</ele><time>2026-04-03T17:54:55Z</time></trkpt><trkpt lat="43.51151632946215" lon="13.429520115136949"><ele>247.5</ele><time>2026-04-03T17:54:56Z</time></trkpt><trkpt lat="43.51163000937955" lon="13.429638091571983"><ele>248.25</ele><time>2026-04-03T17:54:57Z</time></trkpt><trkpt lat="43.511760483867405" lon="13.4297184954398"><ele>249.0</ele><time>2026-04-03T17:54:58Z</time></trkpt><trkpt lat="43.51187124367268" lon="13.429762197380052"><ele>251.75</ele><time>2026-04-03T17:54:59Z</time></trkpt><trkpt lat="43.51196638635757" lon="13.429771947338564"><ele>254.5</ele><time>2026-04-03T17:55:00Z</time></trkpt><trkpt lat="43.5120433308656" lon="13.429694539051743"><ele>257.25</ele><time>2026-04-03T17:55:01Z</time></trkpt><trkpt lat="43.51214539354272" lon="13.429560535407587"><ele>260.0</ele><time>2026-04-03T17:55:02Z</time></trkpt><trkpt lat="43.51222417341253" lon="13.429433720710668"><ele>260.1666666666667</ele><time>2026-04-03T17:55:03Z</time></trkpt><trkpt lat="43.512321299694946" lon="13.429390513454415"><ele>260.33333333333337</ele><time>2026-04-03T17:55:04Z</time></trkpt><trkpt lat="43.51239220947025" lon="13.429404180303072"><ele>260.5</ele><time>2026-04-03T17:55:06Z</time></trkpt><trkpt lat="43.51237581621742" lon="13.42950999749034"><ele>260.6666666666667</ele><time>2026-04-03T17:55:07Z</time></trkpt><trkpt lat="43.512334617169024" lon="13.429581678212825"><ele>260.8333333333333</ele><time>2026-04-03T17:55:08Z</time></trkpt><trkpt lat="43.51229316233007" lon="13.4297053383708"><ele>261.0</ele><time>2026-04-03T17:55:09Z</time></trkpt><trkpt lat="43.512247712306824" lon="13.429859736561632"><ele>263.75</ele><time>2026-04-03T17:55:10Z</time></trkpt><trkpt lat="43.5122187784475" lon="13.430020001196699"><ele>266.5</ele><time>2026-04-03T17:55:11Z</time></trkpt><trkpt lat="43.51217228311645" lon="13.430189625889545"><ele>269.25</ele><time>2026-04-03T17:55:12Z</time></trkpt><trkpt lat="43.51210698747598" lon="13.430365251550707"><ele>272.0</ele><time>2026-04-03T17:55:13Z</time></trkpt><trkpt lat="43.512052802838404" lon="13.430560493775022"><ele>272.5</ele><time>2026-04-03T17:55:14Z</time></trkpt><trkpt lat="43.51199175852167" lon="13.430752227613942"><ele>273.0</ele><time>2026-04-03T17:55:15Z</time></trkpt><trkpt lat="43.51192525998734" lon="13.430931639336746"><ele>273.5</ele><time>2026-04-03T17:55:16Z</time></trkpt><trkpt lat="43.51184194220948" lon="13.431082009456514"><ele>274.0</ele><time>2026-04-03T17:55:17Z</time></trkpt><trkpt lat="43.511741540065174" lon="13.43124257551629"><ele>276.5</ele><time>2026-04-03T17:55:18Z</time></trkpt><trkpt lat="43.51163713519" lon="13.431406111738129"><ele>279.0</ele><time>2026-04-03T17:55:19Z</time></trkpt><trkpt lat="43.51153985874194" lon="13.431561964745674"><ele>281.5</ele><time>2026-04-03T17:55:20Z</time></trkpt><trkpt lat="43.511474604156284" lon="13.431719367681124"><ele>284.0</ele><time>2026-04-03T17:55:21Z</time></trkpt><trkpt lat="43.51142583889757" lon="13.431840990257282"><ele>284.0</ele><time>2026-04-03T17:55:22Z</time></trkpt><trkpt lat="43.5114156136318" lon="13.431970332061615"><ele>284.0</ele><time>2026-04-03T17:55:23Z</time></trkpt><trkpt lat="43.511432232423" lon="13.432139615452215"><ele>284.0</ele><time>2026-04-03T17:55:24Z</time></trkpt><trkpt lat="43.51144956400689" lon="13.432344359691582"><ele>284.0</ele><time>2026-04-03T17:55:25Z</time></trkpt><trkpt lat="43.51143010873358" lon="13.432548996500007"><ele>286.0</ele><time>2026-04-03T17:55:26Z</time></trkpt><trkpt lat="43.51143402227496" lon="13.432756886443178"><ele>288.0</ele><time>2026-04-03T17:55:27Z</time></trkpt><trkpt lat="43.51143771844101" lon="13.432982019805843"><ele>290.0</ele><time>2026-04-03T17:55:28Z</time></trkpt><trkpt lat="43.51143810437813" lon="13.433220237900475"><ele>290.0</ele><time>2026-04-03T17:55:29Z</time></trkpt><trkpt lat="43.51146045584092" lon="13.433464785412353"><ele>290.0</ele><time>2026-04-03T17:55:30Z</time></trkpt><trkpt lat="43.511486275800436" lon="13.43369865862239"><ele>290.0</ele><time>2026-04-03T17:55:31Z</time></trkpt><trkpt lat="43.51151605457266" lon="13.433897503168579"><ele>290.0</ele><time>2026-04-03T17:55:32Z</time></trkpt><trkpt lat="43.51157895729652" lon="13.434083577463898"><ele>290.0</ele><time>2026-04-03T17:55:33Z</time></trkpt><trkpt lat="43.511669791467014" lon="13.434279330148684"><ele>290.0</ele><time>2026-04-03T17:55:34Z</time></trkpt><trkpt lat="43.51175646329034" lon="13.434452994126197"><ele>290.0</ele><time>2026-04-03T17:55:35Z</time></trkpt><trkpt lat="43.511816613016265" lon="13.434628991013986"><ele>290.0</ele><time>2026-04-03T17:55:36Z</time></trkpt><trkpt lat="43.51182176985688" lon="13.43483321235342"><ele>290.0</ele><time>2026-04-03T17:55:37Z</time></trkpt><trkpt lat="43.51183909586771" lon="13.43505720137436"><ele>289.75</ele><time>2026-04-03T17:55:38Z</time></trkpt><trkpt lat="43.511862440374124" lon="13.435270555473274"><ele>289.5</ele><time>2026-04-03T17:55:39Z</time></trkpt><trkpt lat="43.51188752368319" lon="13.435451008202651"><ele>289.25</ele><time>2026-04-03T17:55:40Z</time></trkpt><trkpt lat="43.51191750982656" lon="13.435613964397684"><ele>289.0</ele><time>2026-04-03T17:55:41Z</time></trkpt><trkpt lat="43.512017455271796" lon="13.435799270984836"><ele>294.0</ele><time>2026-04-03T17:55:42Z</time></trkpt><trkpt lat="43.51210936062242" lon="13.43597621524242"><ele>299.0</ele><time>2026-04-03T17:55:43Z</time></trkpt><trkpt lat="43.512207796518034" lon="13.436149659874822"><ele>304.0</ele><time>2026-04-03T17:55:44Z</time></trkpt><trkpt lat="43.5123041377315" lon="13.436322577231232"><ele>304.25</ele><time>2026-04-03T17:55:45Z</time></trkpt><trkpt lat="43.5124014341442" lon="13.436496645241577"><ele>304.5</ele><time>2026-04-03T17:55:46Z</time></trkpt><trkpt lat="43.5125096424522" lon="13.436647504540948"><ele>304.75</ele><time>2026-04-03T17:55:47Z</time></trkpt><trkpt lat="43.512603848139804" lon="13.436743180311753"><ele>305.0</ele><time>2026-04-03T17:55:48Z</time></trkpt><trkpt lat="43.51268027128603" lon="13.436779124483243"><ele>305.0</ele><time>2026-04-03T17:55:49Z</time></trkpt><trkpt lat="43.51275482729586" lon="13.43676896250616"><ele>305.0</ele><time>2026-04-03T17:55:50Z</time></trkpt><trkpt lat="43.51283646346992" lon="13.43670015015753"><ele>305.0</ele><time>2026-04-03T17:55:51Z</time></trkpt><trkpt lat="43.512921036638154" lon="13.436633205814044"><ele>305.0</ele><time>2026-04-03T17:55:52Z</time></trkpt><trkpt lat="43.51301385986216" lon="13.43659034777439"><ele>305.0</ele><time>2026-04-03T17:55:53Z</time></trkpt><trkpt lat="43.513120434812635" lon="13.436539111279197"><ele>306.0</ele><time>2026-04-03T17:55:54Z</time></trkpt><trkpt lat="43.513247180240924" lon="13.436454819243096"><ele>307.0</ele><time>2026-04-03T17:55:55Z</time></trkpt><trkpt lat="43.513379068977606" lon="13.43637477231383"><ele>308.0</ele><time>2026-04-03T17:55:56Z</time></trkpt><trkpt lat="43.51351945832471" lon="13.436296436098853"><ele>309.0</ele><time>2026-04-03T17:55:57Z</time></trkpt><trkpt lat="43.51365561190271" lon="13.436245664575772"><ele>309.0</ele><time>2026-04-03T17:55:58Z</time></trkpt><trkpt lat="43.513809070445454" lon="13.436234122313701"><ele>309.0</ele><time>2026-04-03T17:55:59Z</time></trkpt><trkpt lat="43.51396895837044" lon="13.436198291410918"><ele>309.0</ele><time>2026-04-03T17:56:00Z</time></trkpt><trkpt lat="43.51411335577735" lon="13.436172733054551"><ele>309.0</ele><time>2026-04-03T17:56:01Z</time></trkpt><trkpt lat="43.51425088105369" lon="13.436151371856232"><ele>309.0</ele><time>2026-04-03T17:56:02Z</time></trkpt><trkpt lat="43.51438308046288" lon="13.436153277859919"><ele>309.0</ele><time>2026-04-03T17:56:03Z</time></trkpt><trkpt lat="43.514530084264955" lon="13.436173327024534"><ele>309.0</ele><time>2026-04-03T17:56:04Z</time></trkpt><trkpt lat="43.514699199840344" lon="13.436189337929644"><ele>307.3333333333333</ele><time>2026-04-03T17:56:05Z</time></trkpt><trkpt lat="43.51485978684918" lon="13.436207773783288"><ele>305.66666666666663</ele><time>2026-04-03T17:56:06Z</time></trkpt><trkpt lat="43.51501408610139" lon="13.436192708991038"><ele>304.0</ele><time>2026-04-03T17:56:07Z</time></trkpt><trkpt lat="43.515171349022054" lon="13.436151685806813"><ele>304.0</ele><time>2026-04-03T17:56:08Z</time></trkpt><trkpt lat="43.51532512772347" lon="13.436093735617849"><ele>304.0</ele><time>2026-04-03T17:56:09Z</time></trkpt><trkpt lat="43.5154892167384" lon="13.436020149387009"><ele>304.0</ele><time>2026-04-03T17:56:10Z</time></trkpt><trkpt lat="43.515650447694235" lon="13.435917498543931"><ele>303.0</ele><time>2026-04-03T17:56:11Z</time></trkpt><trkpt lat="43.51580193921298" lon="13.435891797793658"><ele>302.0</ele><time>2026-04-03T17:56:12Z</time></trkpt><trkpt lat="43.51594086472439" lon="13.43583528311249"><ele>301.0</ele><time>2026-04-03T17:56:13Z</time></trkpt><trkpt lat="43.51606863030229" lon="13.435803882907834"><ele>300.0</ele><time>2026-04-03T17:56:14Z</time></trkpt><trkpt lat="43.516183277300044" lon="13.435744944066357"><ele>298.75</ele><time>2026-04-03T17:56:15Z</time></trkpt><trkpt lat="43.516281626703744" lon="13.435665970699564"><ele>297.5</ele><time>2026-04-03T17:56:16Z</time></trkpt><trkpt lat="43.51637679827723" lon="13.435540459464573"><ele>296.25</ele><time>2026-04-03T17:56:17Z</time></trkpt><trkpt lat="43.516469267584085" lon="13.43537960835607"><ele>295.0</ele><time>2026-04-03T17:56:18Z</time></trkpt><trkpt lat="43.516552647616884" lon="13.435248504965612"><ele>294.66666666666663</ele><time>2026-04-03T17:56:19Z</time></trkpt><trkpt lat="43.51662842215202" lon="13.435144034169884"><ele>294.3333333333333</ele><time>2026-04-03T17:56:20Z</time></trkpt><trkpt lat="43.51668323141061" lon="13.435073213829098"><ele>294.0</ele><time>2026-04-03T17:56:21Z</time></trkpt><trkpt lat="43.516740019646726" lon="13.435030098548651"><ele>293.6666666666667</ele><time>2026-04-03T17:56:22Z</time></trkpt><trkpt lat="43.51681183619816" lon="13.435006346954456"><ele>293.33333333333337</ele><time>2026-04-03T17:56:23Z</time></trkpt><trkpt lat="43.51689217062567" lon="13.435036477786776"><ele>293.0</ele><time>2026-04-03T17:56:24Z</time></trkpt><trkpt lat="43.51697883347719" lon="13.435110589664044"><ele>293.0</ele><time>2026-04-03T17:56:25Z</time></trkpt><trkpt lat="43.517054094245275" lon="13.435229140753266"><ele>293.0</ele><time>2026-04-03T17:56:26Z</time></trkpt><trkpt lat="43.51716637923436" lon="13.43531954158203"><ele>293.0</ele><time>2026-04-03T17:56:27Z</time></trkpt><trkpt lat="43.51727602378775" lon="13.43541905555346"><ele>293.0</ele><time>2026-04-03T17:56:28Z</time></trkpt><trkpt lat="43.51738513911771" lon="13.435497062785803"><ele>291.75</ele><time>2026-04-03T17:56:29Z</time></trkpt><trkpt lat="43.517490247982664" lon="13.435563965389624"><ele>290.5</ele><time>2026-04-03T17:56:30Z</time></trkpt><trkpt lat="43.51760132384852" lon="13.435592345703478"><ele>289.25</ele><time>2026-04-03T17:56:31Z</time></trkpt><trkpt lat="43.51771797106058" lon="13.43559485364657"><ele>288.0</ele><time>2026-04-03T17:56:32Z</time></trkpt><trkpt lat="43.51784030036961" lon="13.435597930867951"><ele>287.5</ele><time>2026-04-03T17:56:33Z</time></trkpt><trkpt lat="43.517958463653635" lon="13.435588891680872"><ele>287.0</ele><time>2026-04-03T17:56:34Z</time></trkpt><trkpt lat="43.51808004224559" lon="13.435606751262277"><ele>286.5</ele><time>2026-04-03T17:56:35Z</time></trkpt><trkpt lat="43.51820602952874" lon="13.435652958427436"><ele>286.0</ele><time>2026-04-03T17:56:36Z</time></trkpt><trkpt lat="43.51832457223315" lon="13.435752031670198"><ele>286.0</ele><time>2026-04-03T17:56:37Z</time></trkpt><trkpt lat="43.51845876544716" lon="13.435839901969365"><ele>286.0</ele><time>2026-04-03T17:56:38Z</time></trkpt><trkpt lat="43.518569932404745" lon="13.435947747559501"><ele>286.0</ele><time>2026-04-03T17:56:39Z</time></trkpt><trkpt lat="43.51866995035182" lon="13.43604069596047"><ele>286.0</ele><time>2026-04-03T17:56:40Z</time></trkpt><trkpt lat="43.51875699687763" lon="13.436114233337396"><ele>287.0</ele><time>2026-04-03T17:56:41Z</time></trkpt><trkpt lat="43.51882356422083" lon="13.436165168350543"><ele>288.0</ele><time>2026-04-03T17:56:42Z</time></trkpt><trkpt lat="43.518901576121344" lon="13.436212377118954"><ele>289.0</ele><time>2026-04-03T17:56:44Z</time></trkpt><trkpt lat="43.51894115582708" lon="13.436120048201891"><ele>290.0</ele><time>2026-04-03T17:57:03Z</time></trkpt><trkpt lat="43.518946910147875" lon="13.435992199019678"><ele>291.0</ele><time>2026-04-03T17:57:05Z</time></trkpt><trkpt lat="43.518957775493035" lon="13.43589942298089"><ele>292.0</ele><time>2026-04-03T17:57:06Z</time></trkpt><trkpt lat="43.518969175532845" lon="13.435799120652256"><ele>292.0</ele><time>2026-04-03T17:57:07Z</time></trkpt><trkpt lat="43.51898458478284" lon="13.43570383588396"><ele>292.0</ele><time>2026-04-03T17:57:08Z</time></trkpt><trkpt lat="43.519015561031445" lon="13.435584140074797"><ele>292.0</ele><time>2026-04-03T17:57:09Z</time></trkpt><trkpt lat="43.51905295698852" lon="13.43549183766112"><ele>292.0</ele><time>2026-04-03T17:57:10Z</time></trkpt><trkpt lat="43.51909922716535" lon="13.435429751275512"><ele>292.0</ele><time>2026-04-03T17:57:11Z</time></trkpt><trkpt lat="43.519173741568586" lon="13.435413778904966"><ele>292.0</ele><time>2026-04-03T17:57:12Z</time></trkpt><trkpt lat="43.519250928012994" lon="13.435368557482645"><ele>292.2</ele><time>2026-04-03T17:57:13Z</time></trkpt><trkpt lat="43.519346798450904" lon="13.435325716049697"><ele>292.4</ele><time>2026-04-03T17:57:14Z</time></trkpt><trkpt lat="43.51945413817451" lon="13.435274116039777"><ele>292.6</ele><time>2026-04-03T17:57:15Z</time></trkpt><trkpt lat="43.51955722974388" lon="13.435220360059072"><ele>292.8</ele><time>2026-04-03T17:57:16Z</time></trkpt><trkpt lat="43.51966186071945" lon="13.435150143103812"><ele>293.0</ele><time>2026-04-03T17:57:17Z</time></trkpt><trkpt lat="43.51974384991475" lon="13.435067782296905"><ele>294.6</ele><time>2026-04-03T17:57:18Z</time></trkpt><trkpt lat="43.519839061510936" lon="13.434993397255798"><ele>296.20000000000005</ele><time>2026-04-03T17:57:19Z</time></trkpt><trkpt lat="43.5199084124023" lon="13.43491354104118"><ele>297.8</ele><time>2026-04-03T17:57:20Z</time></trkpt><trkpt lat="43.5199662427298" lon="13.434827975777425"><ele>299.40000000000003</ele><time>2026-04-03T17:57:21Z</time></trkpt><trkpt lat="43.52003629595365" lon="13.434711752072127"><ele>301.0</ele><time>2026-04-03T17:57:22Z</time></trkpt><trkpt lat="43.52010260762274" lon="13.434595237279893"><ele>301.75</ele><time>2026-04-03T17:57:23Z</time></trkpt><trkpt lat="43.52018590641054" lon="13.434466315844046"><ele>302.5</ele><time>2026-04-03T17:57:24Z</time></trkpt><trkpt lat="43.520268795638614" lon="13.434334555464003"><ele>303.25</ele><time>2026-04-03T17:57:25Z</time></trkpt><trkpt lat="43.52035689296557" lon="13.434201422860292"><ele>304.0</ele><time>2026-04-03T17:57:26Z</time></trkpt><trkpt lat="43.520447341499406" lon="13.434074627171583"><ele>304.8</ele><time>2026-04-03T17:57:27Z</time></trkpt><trkpt lat="43.52052095809101" lon="13.433969564162586"><ele>305.59999999999997</ele><time>2026-04-03T17:57:28Z</time></trkpt><trkpt lat="43.520591632552446" lon="13.433932087264466"><ele>306.4</ele><time>2026-04-03T17:57:29Z</time></trkpt><trkpt lat="43.520692886513864" lon="13.433882668400205"><ele>307.2</ele><time>2026-04-03T17:57:31Z</time></trkpt><trkpt lat="43.52076797403817" lon="13.433866763588199"><ele>308.0</ele><time>2026-04-03T17:57:32Z</time></trkpt><trkpt lat="43.52085273787966" lon="13.433833913695793"><ele>307.4</ele><time>2026-04-03T17:57:33Z</time></trkpt><trkpt lat="43.52092379028263" lon="13.433788146273283"><ele>306.8</ele><time>2026-04-03T17:57:34Z</time></trkpt><trkpt lat="43.521008458771966" lon="13.433764188036472"><ele>306.2</ele><time>2026-04-03T17:57:35Z</time></trkpt><trkpt lat="43.52109750023985" lon="13.433764831480241"><ele>305.6</ele><time>2026-04-03T17:57:36Z</time></trkpt><trkpt lat="43.52119143480836" lon="13.433766013567146"><ele>305.0</ele><time>2026-04-03T17:57:37Z</time></trkpt><trkpt lat="43.521302642108495" lon="13.433777263525762"><ele>304.8</ele><time>2026-04-03T17:57:38Z</time></trkpt><trkpt lat="43.52142357425494" lon="13.433794020968845"><ele>304.6</ele><time>2026-04-03T17:57:39Z</time></trkpt><trkpt lat="43.52153287591505" lon="13.433803900341005"><ele>304.4</ele><time>2026-04-03T17:57:40Z</time></trkpt><trkpt lat="43.5216371570971" lon="13.43382348651986"><ele>304.2</ele><time>2026-04-03T17:57:41Z</time></trkpt><trkpt lat="43.521739008006854" lon="13.43387784290031"><ele>304.0</ele><time>2026-04-03T17:57:42Z</time></trkpt><trkpt lat="43.52181386073343" lon="13.43388765673862"><ele>304.0</ele><time>2026-04-03T17:57:43Z</time></trkpt><trkpt lat="43.521903613371485" lon="13.433892581364011"><ele>304.0</ele><time>2026-04-03T17:57:45Z</time></trkpt><trkpt lat="43.5219953528989" lon="13.433912843006109"><ele>304.0</ele><time>2026-04-03T17:57:47Z</time></trkpt><trkpt lat="43.52206434028766" lon="13.433930192511665"><ele>304.0</ele><time>2026-04-03T17:57:48Z</time></trkpt><trkpt lat="43.52214199993809" lon="13.433944028475793"><ele>304.0</ele><time>2026-04-03T17:57:49Z</time></trkpt><trkpt lat="43.522227533301546" lon="13.433962950604307"><ele>304.0</ele><time>2026-04-03T17:57:50Z</time></trkpt><trkpt lat="43.52231613481462" lon="13.433979666579312"><ele>304.3333333333333</ele><time>2026-04-03T17:57:51Z</time></trkpt><trkpt lat="43.522395124894864" lon="13.434019579960736"><ele>304.66666666666663</ele><time>2026-04-03T17:57:52Z</time></trkpt><trkpt lat="43.522478374672396" lon="13.434027637170482"><ele>305.0</ele><time>2026-04-03T17:57:53Z</time></trkpt><trkpt lat="43.52257215709673" lon="13.434062530915613"><ele>305.3333333333333</ele><time>2026-04-03T17:57:54Z</time></trkpt><trkpt lat="43.52265949255454" lon="13.434097318759466"><ele>305.6666666666667</ele><time>2026-04-03T17:57:55Z</time></trkpt><trkpt lat="43.522740803256276" lon="13.434135609390331"><ele>306.0</ele><time>2026-04-03T17:57:56Z</time></trkpt><trkpt lat="43.52282406697177" lon="13.43418952076976"><ele>304.6</ele><time>2026-04-03T17:57:57Z</time></trkpt><trkpt lat="43.522902533240305" lon="13.434246539099675"><ele>303.20000000000005</ele><time>2026-04-03T17:57:58Z</time></trkpt><trkpt lat="43.52297790787889" lon="13.434309526084803"><ele>301.79999999999995</ele><time>2026-04-03T17:57:59Z</time></trkpt><trkpt lat="43.523054397828865" lon="13.434370236765659"><ele>300.4</ele><time>2026-04-03T17:58:00Z</time></trkpt><trkpt lat="43.52314787880726" lon="13.434451641385577"><ele>299.0</ele><time>2026-04-03T17:58:01Z</time></trkpt><trkpt lat="43.523237995682045" lon="13.434530526312624"><ele>299.0</ele><time>2026-04-03T17:58:02Z</time></trkpt><trkpt lat="43.52334045152567" lon="13.434616728907866"><ele>299.0</ele><time>2026-04-03T17:58:03Z</time></trkpt><trkpt lat="43.52343935497008" lon="13.434697833278419"><ele>299.0</ele><time>2026-04-03T17:58:04Z</time></trkpt><trkpt lat="43.52353997974497" lon="13.434780144656498"><ele>299.0</ele><time>2026-04-03T17:58:05Z</time></trkpt><trkpt lat="43.52362970244715" lon="13.434854378056885"><ele>301.0</ele><time>2026-04-03T17:58:06Z</time></trkpt><trkpt lat="43.52372301046933" lon="13.43494245308869"><ele>303.0</ele><time>2026-04-03T17:58:07Z</time></trkpt><trkpt lat="43.523819934759004" lon="13.435041185228412"><ele>305.0</ele><time>2026-04-03T17:58:08Z</time></trkpt><trkpt lat="43.52390456032187" lon="13.435155879037072"><ele>307.0</ele><time>2026-04-03T17:58:09Z</time></trkpt><trkpt lat="43.523973756514806" lon="13.435286531331379"><ele>307.0</ele><time>2026-04-03T17:58:10Z</time></trkpt><trkpt lat="43.52403535977103" lon="13.435422086175118"><ele>307.0</ele><time>2026-04-03T17:58:11Z</time></trkpt><trkpt lat="43.524107894016396" lon="13.435533247345706"><ele>307.0</ele><time>2026-04-03T17:58:12Z</time></trkpt><trkpt lat="43.52418217565387" lon="13.435604459737503"><ele>307.0</ele><time>2026-04-03T17:58:13Z</time></trkpt><trkpt lat="43.52428111077067" lon="13.435663774271879"><ele>307.0</ele><time>2026-04-03T17:58:14Z</time></trkpt><trkpt lat="43.52438092201306" lon="13.435734958563085"><ele>307.25</ele><time>2026-04-03T17:58:15Z</time></trkpt><trkpt lat="43.52448182117347" lon="13.435807642785633"><ele>307.5</ele><time>2026-04-03T17:58:16Z</time></trkpt><trkpt lat="43.52459052964471" lon="13.435885858467667"><ele>307.75</ele><time>2026-04-03T17:58:17Z</time></trkpt><trkpt lat="43.5246845740737" lon="13.4359720587027"><ele>308.0</ele><time>2026-04-03T17:58:18Z</time></trkpt><trkpt lat="43.52476682947349" lon="13.436082835637865"><ele>308.0</ele><time>2026-04-03T17:58:19Z</time></trkpt><trkpt lat="43.52483964170766" lon="13.436174792396582"><ele>308.0</ele><time>2026-04-03T17:58:20Z</time></trkpt><trkpt lat="43.524907377824974" lon="13.436211749102345"><ele>308.0</ele><time>2026-04-03T17:58:21Z</time></trkpt><trkpt lat="43.524967758672645" lon="13.43630586292696"><ele>308.0</ele><time>2026-04-03T17:58:23Z</time></trkpt><trkpt lat="43.525023261462216" lon="13.436354175645237"><ele>308.0</ele><time>2026-04-03T17:58:24Z</time></trkpt><trkpt lat="43.525091903207574" lon="13.436425765440001"><ele>308.0</ele><time>2026-04-03T17:58:25Z</time></trkpt><trkpt lat="43.525178052557024" lon="13.436509765821121"><ele>308.0</ele><time>2026-04-03T17:58:26Z</time></trkpt><trkpt lat="43.52526559978481" lon="13.436585828643494"><ele>308.0</ele><time>2026-04-03T17:58:27Z</time></trkpt><trkpt lat="43.525363821717036" lon="13.436677611708442"><ele>308.0</ele><time>2026-04-03T17:58:28Z</time></trkpt><trkpt lat="43.52546819282365" lon="13.43678364978176"><ele>308.0</ele><time>2026-04-03T17:58:29Z</time></trkpt><trkpt lat="43.5255805270327" lon="13.436889918504688"><ele>308.0</ele><time>2026-04-03T17:58:30Z</time></trkpt><trkpt lat="43.525687278660186" lon="13.436999015088212"><ele>308.0</ele><time>2026-04-03T17:58:31Z</time></trkpt><trkpt lat="43.52579052607346" lon="13.43709953849275"><ele>308.0</ele><time>2026-04-03T17:58:32Z</time></trkpt><trkpt lat="43.52588943304512" lon="13.437197446060708"><ele>308.0</ele><time>2026-04-03T17:58:33Z</time></trkpt><trkpt lat="43.52598180546492" lon="13.437311932673675"><ele>308.5</ele><time>2026-04-03T17:58:34Z</time></trkpt><trkpt lat="43.5260795549098" lon="13.437408328912275"><ele>309.0</ele><time>2026-04-03T17:58:35Z</time></trkpt><trkpt lat="43.52617349362453" lon="13.437501404726312"><ele>309.5</ele><time>2026-04-03T17:58:36Z</time></trkpt><trkpt lat="43.52626505132995" lon="13.437596027378701"><ele>310.0</ele><time>2026-04-03T17:58:37Z</time></trkpt><trkpt lat="43.526349000705856" lon="13.437682450523154"><ele>310.0</ele><time>2026-04-03T17:58:38Z</time></trkpt><trkpt lat="43.52644325458523" lon="13.437754044453486"><ele>310.0</ele><time>2026-04-03T17:58:39Z</time></trkpt><trkpt lat="43.52650398874266" lon="13.437851000991333"><ele>310.0</ele><time>2026-04-03T17:58:40Z</time></trkpt><trkpt lat="43.526563270469424" lon="13.437922742412074"><ele>310.0</ele><time>2026-04-03T17:58:41Z</time></trkpt><trkpt lat="43.52661614036799" lon="13.438014097641341"><ele>310.0</ele><time>2026-04-03T17:58:43Z</time></trkpt><trkpt lat="43.5266921057686" lon="13.437947982258956"><ele>310.0</ele><time>2026-04-03T17:58:44Z</time></trkpt><trkpt lat="43.52672201667145" lon="13.437860150058459"><ele>310.0</ele><time>2026-04-03T17:58:56Z</time></trkpt><trkpt lat="43.52679981285824" lon="13.43774753308861"><ele>310.0</ele><time>2026-04-03T17:58:58Z</time></trkpt><trkpt lat="43.526845592047025" lon="13.437687216533144"><ele>310.0</ele><time>2026-04-03T17:58:59Z</time></trkpt><trkpt lat="43.5268944272186" lon="13.43762341722476"><ele>310.0</ele><time>2026-04-03T17:59:00Z</time></trkpt><trkpt lat="43.526938158753154" lon="13.43755338086224"><ele>310.0</ele><time>2026-04-03T17:59:01Z</time></trkpt><trkpt lat="43.52702274735192" lon="13.437440377395896"><ele>307.0</ele><time>2026-04-03T17:59:03Z</time></trkpt><trkpt lat="43.52714587719143" lon="13.437364520070217"><ele>304.0</ele><time>2026-04-03T17:59:05Z</time></trkpt><trkpt lat="43.52722432144911" lon="13.437336968174495"><ele>301.0</ele><time>2026-04-03T17:59:06Z</time></trkpt><trkpt lat="43.5272975966742" lon="13.437336435741146"><ele>298.0</ele><time>2026-04-03T17:59:07Z</time></trkpt><trkpt lat="43.527360628867655" lon="13.437360396343342"><ele>295.0</ele><time>2026-04-03T17:59:08Z</time></trkpt><trkpt lat="43.527430115537825" lon="13.437465144184166"><ele>295.0</ele><time>2026-04-03T17:59:10Z</time></trkpt><trkpt lat="43.52739301906416" lon="13.437390271092715"><ele>295.0</ele><time>2026-04-03T17:59:43Z</time></trkpt><trkpt lat="43.52733839560934" lon="13.437345860202226"><ele>295.0</ele><time>2026-04-03T17:59:50Z</time></trkpt><trkpt lat="43.5273952631036" lon="13.437407953059727"><ele>295.0</ele><time>2026-04-03T18:00:04Z</time></trkpt><trkpt lat="43.52744229253358" lon="13.43748719850105"><ele>295.0</ele><time>2026-04-03T18:00:08Z</time></trkpt><trkpt lat="43.52755541522687" lon="13.437582820621813"><ele>295.0</ele><time>2026-04-03T18:00:09Z</time></trkpt><trkpt lat="43.5276061593754" lon="13.437638227334487"><ele>295.0</ele><time>2026-04-03T18:00:10Z</time></trkpt><trkpt lat="43.527858363718686" lon="13.437367413649904"><ele>295.0</ele><time>2026-04-03T18:00:12Z</time></trkpt><trkpt lat="43.52794005772575" lon="13.437399507730117"><ele>295.0</ele><time>2026-04-03T18:00:15Z</time></trkpt><trkpt lat="43.528008518740826" lon="13.437414880160771"><ele>292.16666666666663</ele><time>2026-04-03T18:00:17Z</time></trkpt><trkpt lat="43.52808855099552" lon="13.437438123739025"><ele>289.3333333333333</ele><time>2026-04-03T18:00:19Z</time></trkpt><trkpt lat="43.52816898289213" lon="13.437460762339247"><ele>286.5</ele><time>2026-04-03T18:00:21Z</time></trkpt><trkpt lat="43.52824480065794" lon="13.43750130387371"><ele>283.6666666666667</ele><time>2026-04-03T18:00:23Z</time></trkpt><trkpt lat="43.528329070485526" lon="13.437549621839851"><ele>280.83333333333337</ele><time>2026-04-03T18:00:25Z</time></trkpt><trkpt lat="43.528398837935256" lon="13.43759724262333"><ele>278.0</ele><time>2026-04-03T18:00:27Z</time></trkpt><trkpt lat="43.52851075672306" lon="13.437667340352784"><ele>278.0</ele><time>2026-04-03T18:00:29Z</time></trkpt><trkpt lat="43.52856894827943" lon="13.437708159152317"><ele>278.0</ele><time>2026-04-03T18:00:30Z</time></trkpt><trkpt lat="43.528690640799624" lon="13.437730780201612"><ele>278.0</ele><time>2026-04-03T18:00:32Z</time></trkpt><trkpt lat="43.52876561205645" lon="13.437801423241348"><ele>278.0</ele><time>2026-04-03T18:00:34Z</time></trkpt><trkpt lat="43.52884604035879" lon="13.437869897455169"><ele>278.0</ele><time>2026-04-03T18:00:36Z</time></trkpt><trkpt lat="43.52891140319849" lon="13.4378957433356"><ele>278.0</ele><time>2026-04-03T18:00:38Z</time></trkpt><trkpt lat="43.528979042759396" lon="13.437995636152282"><ele>276.2</ele><time>2026-04-03T18:00:40Z</time></trkpt><trkpt lat="43.529057902237746" lon="13.438125597930993"><ele>274.4</ele><time>2026-04-03T18:00:42Z</time></trkpt><trkpt lat="43.529094468579885" lon="13.438201844967297"><ele>272.59999999999997</ele><time>2026-04-03T18:00:43Z</time></trkpt><trkpt lat="43.529148115545766" lon="13.43827308708046"><ele>270.8</ele><time>2026-04-03T18:00:45Z</time></trkpt><trkpt lat="43.5291964983329" lon="13.438378329947044"><ele>269.0</ele><time>2026-04-03T18:00:47Z</time></trkpt><trkpt lat="43.52925850002675" lon="13.438510622407767"><ele>269.0</ele><time>2026-04-03T18:00:49Z</time></trkpt><trkpt lat="43.52929003813196" lon="13.438591609990926"><ele>269.0</ele><time>2026-04-03T18:00:50Z</time></trkpt><trkpt lat="43.529322498107845" lon="13.438670106124741"><ele>269.0</ele><time>2026-04-03T18:00:51Z</time></trkpt><trkpt lat="43.52935710187479" lon="13.438757126785356"><ele>269.0</ele><time>2026-04-03T18:00:52Z</time></trkpt><trkpt lat="43.52939578945524" lon="13.438855589541598"><ele>269.0</ele><time>2026-04-03T18:00:53Z</time></trkpt><trkpt lat="43.529427897401554" lon="13.438949853760482"><ele>269.0</ele><time>2026-04-03T18:00:54Z</time></trkpt><trkpt lat="43.5294623473597" lon="13.439052468105336"><ele>269.0</ele><time>2026-04-03T18:00:55Z</time></trkpt><trkpt lat="43.529494769813034" lon="13.439164830378612"><ele>269.2</ele><time>2026-04-03T18:00:56Z</time></trkpt><trkpt lat="43.52951955982969" lon="13.439283313082523"><ele>269.4</ele><time>2026-04-03T18:00:57Z</time></trkpt><trkpt lat="43.52954030896293" lon="13.439401960364703"><ele>269.6</ele><time>2026-04-03T18:00:58Z</time></trkpt><trkpt lat="43.529551760515034" lon="13.439527527781152"><ele>269.8</ele><time>2026-04-03T18:00:59Z</time></trkpt><trkpt lat="43.52957283339325" lon="13.439653199861016"><ele>270.0</ele><time>2026-04-03T18:01:00Z</time></trkpt><trkpt lat="43.529582020218854" lon="13.439783457039319"><ele>267.4</ele><time>2026-04-03T18:01:01Z</time></trkpt><trkpt lat="43.52959512004727" lon="13.439908055132447"><ele>264.8</ele><time>2026-04-03T18:01:02Z</time></trkpt><trkpt lat="43.52959363715517" lon="13.440039501162794"><ele>262.2</ele><time>2026-04-03T18:01:03Z</time></trkpt><trkpt lat="43.52959968942271" lon="13.44016635838639"><ele>259.6</ele><time>2026-04-03T18:01:04Z</time></trkpt><trkpt lat="43.529605576197106" lon="13.440289746771086"><ele>257.0</ele><time>2026-04-03T18:01:05Z</time></trkpt><trkpt lat="43.529611292746075" lon="13.440409567193782"><ele>256.5</ele><time>2026-04-03T18:01:06Z</time></trkpt><trkpt lat="43.529616877180956" lon="13.440525432137427"><ele>256.0</ele><time>2026-04-03T18:01:07Z</time></trkpt><trkpt lat="43.52962278482552" lon="13.440624508081372"><ele>255.5</ele><time>2026-04-03T18:01:08Z</time></trkpt><trkpt lat="43.529645288752846" lon="13.44071222921023"><ele>255.0</ele><time>2026-04-03T18:01:09Z</time></trkpt><trkpt lat="43.52964602102195" lon="13.440801549498534"><ele>254.50000000000003</ele><time>2026-04-03T18:01:11Z</time></trkpt><trkpt lat="43.52975890223477" lon="13.440784857353421"><ele>254.0</ele><time>2026-04-03T18:01:17Z</time></trkpt><trkpt lat="43.52982871513904" lon="13.44071439267045"><ele>254.00000000000003</ele><time>2026-04-03T18:01:18Z</time></trkpt><trkpt lat="43.529892134692574" lon="13.440653921011595"><ele>254.0</ele><time>2026-04-03T18:01:19Z</time></trkpt><trkpt lat="43.52996756218144" lon="13.440596666470787"><ele>254.0</ele><time>2026-04-03T18:01:20Z</time></trkpt><trkpt lat="43.53004326950218" lon="13.440535724955314"><ele>254.0</ele><time>2026-04-03T18:01:21Z</time></trkpt><trkpt lat="43.530121984583324" lon="13.440475216038662"><ele>254.00000000000003</ele><time>2026-04-03T18:01:22Z</time></trkpt><trkpt lat="43.530192672083395" lon="13.440416599788172"><ele>254.0</ele><time>2026-04-03T18:01:23Z</time></trkpt><trkpt lat="43.530260757513" lon="13.440359387774258"><ele>254.50000000000003</ele><time>2026-04-03T18:01:24Z</time></trkpt><trkpt lat="43.53032491478392" lon="13.440294189940618"><ele>255.0</ele><time>2026-04-03T18:01:25Z</time></trkpt><trkpt lat="43.530386351512014" lon="13.44022729942781"><ele>255.5</ele><time>2026-04-03T18:01:26Z</time></trkpt><trkpt lat="43.53044878739896" lon="13.440176827220064"><ele>256.0</ele><time>2026-04-03T18:01:27Z</time></trkpt><trkpt lat="43.53051795961416" lon="13.440081711280904"><ele>256.5</ele><time>2026-04-03T18:01:28Z</time></trkpt><trkpt lat="43.530597653614514" lon="13.440006337174305"><ele>257.0</ele><time>2026-04-03T18:01:29Z</time></trkpt><trkpt lat="43.530677578610195" lon="13.43992781149322"><ele>253.8</ele><time>2026-04-03T18:01:30Z</time></trkpt><trkpt lat="43.53074955653693" lon="13.439841695616742"><ele>250.6</ele><time>2026-04-03T18:01:31Z</time></trkpt><trkpt lat="43.53080144399118" lon="13.439743011285119"><ele>247.40000000000003</ele><time>2026-04-03T18:01:32Z</time></trkpt><trkpt lat="43.530818148970745" lon="13.439628059266026"><ele>244.20000000000002</ele><time>2026-04-03T18:01:33Z</time></trkpt><trkpt lat="43.53079583474057" lon="13.439508700298775"><ele>241.0</ele><time>2026-04-03T18:01:34Z</time></trkpt><trkpt lat="43.530747684830736" lon="13.439398296321414"><ele>239.99999999999997</ele><time>2026-04-03T18:01:35Z</time></trkpt><trkpt lat="43.53070048973479" lon="13.43930315216181"><ele>239.0</ele><time>2026-04-03T18:01:36Z</time></trkpt><trkpt lat="43.530654122986526" lon="13.439209836498566"><ele>238.0</ele><time>2026-04-03T18:01:37Z</time></trkpt><trkpt lat="43.530612769838896" lon="13.439117965229276"><ele>237.0</ele><time>2026-04-03T18:01:38Z</time></trkpt><trkpt lat="43.530578761459616" lon="13.439020279406195"><ele>235.99999999999997</ele><time>2026-04-03T18:01:39Z</time></trkpt><trkpt lat="43.53060185601867" lon="13.438864654860707"><ele>235.0</ele><time>2026-04-03T18:01:41Z</time></trkpt><trkpt lat="43.530657840866205" lon="13.438814250873723"><ele>233.4</ele><time>2026-04-03T18:01:42Z</time></trkpt><trkpt lat="43.53064514337013" lon="13.438699238624034"><ele>231.8</ele><time>2026-04-03T18:02:19Z</time></trkpt><trkpt lat="43.5306362700499" lon="13.438519621010775"><ele>230.2</ele><time>2026-04-03T18:02:21Z</time></trkpt><trkpt lat="43.53063081037748" lon="13.438409103948779"><ele>228.6</ele><time>2026-04-03T18:02:22Z</time></trkpt><trkpt lat="43.530611908912896" lon="13.438286329905168"><ele>227.0</ele><time>2026-04-03T18:02:23Z</time></trkpt><trkpt lat="43.53060722273384" lon="13.43814755936551"><ele>227.0</ele><time>2026-04-03T18:02:24Z</time></trkpt><trkpt lat="43.530601602626355" lon="13.437999408896157"><ele>227.0</ele><time>2026-04-03T18:02:25Z</time></trkpt><trkpt lat="43.53059605902096" lon="13.437860397262675"><ele>227.0</ele><time>2026-04-03T18:02:26Z</time></trkpt><trkpt lat="43.530582826771045" lon="13.437726471144348"><ele>227.0</ele><time>2026-04-03T18:02:27Z</time></trkpt><trkpt lat="43.53056717703126" lon="13.43759970219255"><ele>227.0</ele><time>2026-04-03T18:02:28Z</time></trkpt><trkpt lat="43.53054576486778" lon="13.43746555751379"><ele>225.50000000000003</ele><time>2026-04-03T18:02:29Z</time></trkpt><trkpt lat="43.53054698492849" lon="13.437372375818036"><ele>224.0</ele><time>2026-04-03T18:02:30Z</time></trkpt><trkpt lat="43.53054276160749" lon="13.437276772993581"><ele>222.5</ele><time>2026-04-03T18:02:31Z</time></trkpt><trkpt lat="43.53054918744465" lon="13.437110333894923"><ele>221.0</ele><time>2026-04-03T18:02:33Z</time></trkpt><trkpt lat="43.530578399945455" lon="13.437019054269939"><ele>219.50000000000003</ele><time>2026-04-03T18:02:34Z</time></trkpt><trkpt lat="43.53059731321231" lon="13.436913715325922"><ele>218.0</ele><time>2026-04-03T18:02:35Z</time></trkpt><trkpt lat="43.53060082172266" lon="13.436801296658663"><ele>216.28571428571428</ele><time>2026-04-03T18:02:36Z</time></trkpt><trkpt lat="43.53059897444626" lon="13.436689736240774"><ele>214.57142857142858</ele><time>2026-04-03T18:02:37Z</time></trkpt><trkpt lat="43.53059236707275" lon="13.436596014585765"><ele>212.85714285714283</ele><time>2026-04-03T18:02:38Z</time></trkpt><trkpt lat="43.53058304441962" lon="13.436503018942476"><ele>211.14285714285714</ele><time>2026-04-03T18:02:39Z</time></trkpt><trkpt lat="43.53056199161636" lon="13.436417220463706"><ele>209.42857142857142</ele><time>2026-04-03T18:02:40Z</time></trkpt><trkpt lat="43.53053781561916" lon="13.43632348417268"><ele>207.7142857142857</ele><time>2026-04-03T18:02:41Z</time></trkpt><trkpt lat="43.53050663883737" lon="13.436207270594242"><ele>206.0</ele><time>2026-04-03T18:02:42Z</time></trkpt><trkpt lat="43.53049299898295" lon="13.436093523964638"><ele>205.66666666666669</ele><time>2026-04-03T18:02:43Z</time></trkpt><trkpt lat="43.530461412651995" lon="13.435976030558045"><ele>205.33333333333334</ele><time>2026-04-03T18:02:44Z</time></trkpt><trkpt lat="43.53043402132834" lon="13.435875328792337"><ele>205.0</ele><time>2026-04-03T18:02:45Z</time></trkpt><trkpt lat="43.53041001670734" lon="13.435787078525648"><ele>204.66666666666669</ele><time>2026-04-03T18:02:46Z</time></trkpt><trkpt lat="43.53038582653991" lon="13.43569814007051"><ele>204.33333333333334</ele><time>2026-04-03T18:02:47Z</time></trkpt><trkpt lat="43.53033481392864" lon="13.435544328083491"><ele>204.0</ele><time>2026-04-03T18:02:49Z</time></trkpt><trkpt lat="43.53031092130786" lon="13.435458470705166"><ele>204.0</ele><time>2026-04-03T18:02:51Z</time></trkpt><trkpt lat="43.53028641061666" lon="13.435373785395734"><ele>204.0</ele><time>2026-04-03T18:02:53Z</time></trkpt><trkpt lat="43.53026310721332" lon="13.435261350806151"><ele>204.0</ele><time>2026-04-03T18:02:55Z</time></trkpt><trkpt lat="43.53022615301364" lon="13.435109042558528"><ele>204.0</ele><time>2026-04-03T18:02:57Z</time></trkpt><trkpt lat="43.530163489116546" lon="13.43496932040836"><ele>204.0</ele><time>2026-04-03T18:02:59Z</time></trkpt><trkpt lat="43.530101480645456" lon="13.434828330536194"><ele>204.0</ele><time>2026-04-03T18:03:01Z</time></trkpt><trkpt lat="43.53003299178096" lon="13.434693031683974"><ele>204.0</ele><time>2026-04-03T18:03:03Z</time></trkpt><trkpt lat="43.52997377343948" lon="13.434588839377488"><ele>204.0</ele><time>2026-04-03T18:03:05Z</time></trkpt><trkpt lat="43.52992395260859" lon="13.434497179857301"><ele>204.0</ele><time>2026-04-03T18:03:07Z</time></trkpt><trkpt lat="43.52986439245926" lon="13.434397075498605"><ele>204.0</ele><time>2026-04-03T18:03:09Z</time></trkpt><trkpt lat="43.52981006366225" lon="13.434301435048411"><ele>201.5</ele><time>2026-04-03T18:03:11Z</time></trkpt><trkpt lat="43.52977757892617" lon="13.434202189220894"><ele>199.0</ele><time>2026-04-03T18:03:13Z</time></trkpt><trkpt lat="43.52975926290762" lon="13.434095692152217"><ele>196.5</ele><time>2026-04-03T18:03:15Z</time></trkpt><trkpt lat="43.52978935678077" lon="13.434016381179742"><ele>194.0</ele><time>2026-04-03T18:03:18Z</time></trkpt><trkpt lat="43.52985002527666" lon="13.433935326639846"><ele>191.5</ele><time>2026-04-03T18:03:20Z</time></trkpt><trkpt lat="43.52990274185693" lon="13.43385758893481"><ele>189.0</ele><time>2026-04-03T18:03:22Z</time></trkpt><trkpt lat="43.5299399268698" lon="13.43377161394739"><ele>187.28571428571428</ele><time>2026-04-03T18:03:24Z</time></trkpt><trkpt lat="43.529970923327085" lon="13.433692783277895"><ele>185.57142857142856</ele><time>2026-04-03T18:03:26Z</time></trkpt><trkpt lat="43.52998632371385" lon="13.43359918046281"><ele>183.85714285714286</ele><time>2026-04-03T18:03:29Z</time></trkpt><trkpt lat="43.53001020297827" lon="13.433513404784925"><ele>182.14285714285714</ele><time>2026-04-03T18:03:33Z</time></trkpt><trkpt lat="43.53003226874709" lon="13.43341879229943"><ele>180.42857142857142</ele><time>2026-04-03T18:03:37Z</time></trkpt><trkpt lat="43.53006022946169" lon="13.433318173938346"><ele>178.71428571428572</ele><time>2026-04-03T18:03:40Z</time></trkpt><trkpt lat="43.53007390846002" lon="13.433213384111502"><ele>177.0</ele><time>2026-04-03T18:03:43Z</time></trkpt><trkpt lat="43.53008551842793" lon="13.433118675870167"><ele>177.0</ele><time>2026-04-03T18:03:47Z</time></trkpt><trkpt lat="43.53010324198646" lon="13.433011143340451"><ele>177.0</ele><time>2026-04-03T18:03:50Z</time></trkpt><trkpt lat="43.53012170023907" lon="13.432892552412016"><ele>177.0</ele><time>2026-04-03T18:03:53Z</time></trkpt><trkpt lat="43.53012990730362" lon="13.43279307449695"><ele>177.0</ele><time>2026-04-03T18:03:55Z</time></trkpt><trkpt lat="43.53012609952634" lon="13.432670914945668"><ele>177.0</ele><time>2026-04-03T18:03:57Z</time></trkpt><trkpt lat="43.53012430989494" lon="13.432554759912628"><ele>177.0</ele><time>2026-04-03T18:03:59Z</time></trkpt><trkpt lat="43.53013671758046" lon="13.432448670399573"><ele>175.16666666666666</ele><time>2026-04-03T18:04:01Z</time></trkpt><trkpt lat="43.530160808774255" lon="13.432363777496489"><ele>173.33333333333334</ele><time>2026-04-03T18:04:03Z</time></trkpt><trkpt lat="43.530186477180365" lon="13.432239572590213"><ele>171.5</ele><time>2026-04-03T18:04:06Z</time></trkpt><trkpt lat="43.5302251575672" lon="13.432159324008714"><ele>169.66666666666669</ele><time>2026-04-03T18:04:08Z</time></trkpt><trkpt lat="43.53029664998316" lon="13.432089364438333"><ele>167.83333333333334</ele><time>2026-04-03T18:04:11Z</time></trkpt><trkpt lat="43.530354680731726" lon="13.432040738698497"><ele>166.0</ele><time>2026-04-03T18:04:13Z</time></trkpt><trkpt lat="43.530400895260975" lon="13.431977153674591"><ele>163.66666666666669</ele><time>2026-04-03T18:04:15Z</time></trkpt><trkpt lat="43.530434649841744" lon="13.431899310743178"><ele>161.33333333333334</ele><time>2026-04-03T18:04:17Z</time></trkpt><trkpt lat="43.5304587928362" lon="13.431806926091898"><ele>159.0</ele><time>2026-04-03T18:04:19Z</time></trkpt><trkpt lat="43.53047914293721" lon="13.43170610225191"><ele>156.66666666666666</ele><time>2026-04-03T18:04:21Z</time></trkpt><trkpt lat="43.53050354693496" lon="13.431572761838998"><ele>154.33333333333331</ele><time>2026-04-03T18:04:23Z</time></trkpt><trkpt lat="43.53054437362928" lon="13.431444314451692"><ele>152.0</ele><time>2026-04-03T18:04:25Z</time></trkpt><trkpt lat="43.53056690092793" lon="13.431319806585712"><ele>151.16666666666666</ele><time>2026-04-03T18:04:27Z</time></trkpt><trkpt lat="43.53058976945741" lon="13.431187935693451"><ele>150.33333333333331</ele><time>2026-04-03T18:04:29Z</time></trkpt><trkpt lat="43.530600083476614" lon="13.431062966167861"><ele>149.5</ele><time>2026-04-03T18:04:31Z</time></trkpt><trkpt lat="43.53060691622068" lon="13.43094250571679"><ele>148.66666666666666</ele><time>2026-04-03T18:04:33Z</time></trkpt><trkpt lat="43.53060567721548" lon="13.43083557585721"><ele>147.83333333333334</ele><time>2026-04-03T18:04:35Z</time></trkpt><trkpt lat="43.53060211848997" lon="13.430728047215258"><ele>147.0</ele><time>2026-04-03T18:04:37Z</time></trkpt><trkpt lat="43.53060077321039" lon="13.43063137467116"><ele>147.0</ele><time>2026-04-03T18:04:39Z</time></trkpt><trkpt lat="43.53059165548539" lon="13.430535953484872"><ele>147.0</ele><time>2026-04-03T18:04:41Z</time></trkpt><trkpt lat="43.52944220696035" lon="13.425566061653411"><ele>135.2</ele><time>2026-04-03T18:06:30Z</time></trkpt><trkpt lat="43.5295368226806" lon="13.425539407222635"><ele>123.39999999999999</ele><time>2026-04-03T18:06:32Z</time></trkpt><trkpt lat="43.529607991645946" lon="13.425514347676778"><ele>111.6</ele><time>2026-04-03T18:06:34Z</time></trkpt><trkpt lat="43.529682852389975" lon="13.425499821673421"><ele>99.80000000000001</ele><time>2026-04-03T18:06:40Z</time></trkpt><trkpt lat="43.52986969561919" lon="13.425475602845312"><ele>88.0</ele><time>2026-04-03T18:06:44Z</time></trkpt><trkpt lat="43.529993551730726" lon="13.42548347608505"><ele>87.85714285714286</ele><time>2026-04-03T18:06:46Z</time></trkpt><trkpt lat="43.530060424245775" lon="13.425481421638995"><ele>87.71428571428571</ele><time>2026-04-03T18:06:47Z</time></trkpt><trkpt lat="43.53012352477286" lon="13.425479484551534"><ele>87.57142857142857</ele><time>2026-04-03T18:06:48Z</time></trkpt><trkpt lat="43.5301882186084" lon="13.425479485750223"><ele>87.42857142857143</ele><time>2026-04-03T18:06:49Z</time></trkpt><trkpt lat="43.530256584350106" lon="13.425480053943453"><ele>87.28571428571429</ele><time>2026-04-03T18:06:50Z</time></trkpt><trkpt lat="43.53033482316649" lon="13.425483034477391"><ele>87.14285714285714</ele><time>2026-04-03T18:06:51Z</time></trkpt><trkpt lat="43.53040788075244" lon="13.425466993651563"><ele>87.0</ele><time>2026-04-03T18:06:52Z</time></trkpt><trkpt lat="43.530481233338335" lon="13.425495831294803"><ele>86.14285714285714</ele><time>2026-04-03T18:06:53Z</time></trkpt><trkpt lat="43.53054584058486" lon="13.42550327884275"><ele>85.28571428571429</ele><time>2026-04-03T18:06:54Z</time></trkpt><trkpt lat="43.530612400291744" lon="13.425513755743946"><ele>84.42857142857143</ele><time>2026-04-03T18:06:55Z</time></trkpt><trkpt lat="43.530675679294674" lon="13.425523897020039"><ele>83.57142857142857</ele><time>2026-04-03T18:06:56Z</time></trkpt><trkpt lat="43.530747939550785" lon="13.425513617014492"><ele>82.71428571428571</ele><time>2026-04-03T18:06:57Z</time></trkpt><trkpt lat="43.53081870554687" lon="13.42552916721811"><ele>81.85714285714286</ele><time>2026-04-03T18:06:58Z</time></trkpt><trkpt lat="43.53090418685332" lon="13.42556740551141"><ele>81.0</ele><time>2026-04-03T18:06:59Z</time></trkpt><trkpt lat="43.530975752893475" lon="13.42558204638694"><ele>81.0</ele><time>2026-04-03T18:07:00Z</time></trkpt><trkpt lat="43.53104814604169" lon="13.425576309980334"><ele>81.0</ele><time>2026-04-03T18:07:01Z</time></trkpt><trkpt lat="43.53127756845718" lon="13.425652581895541"><ele>81.0</ele><time>2026-04-03T18:07:05Z</time></trkpt><trkpt lat="43.53137194750272" lon="13.425680367447248"><ele>81.0</ele><time>2026-04-03T18:07:07Z</time></trkpt><trkpt lat="43.5314523914296" lon="13.425708840311971"><ele>80.5</ele><time>2026-04-03T18:07:09Z</time></trkpt><trkpt lat="43.53153108769814" lon="13.425736641098418"><ele>80.0</ele><time>2026-04-03T18:07:11Z</time></trkpt><trkpt lat="43.53159833339532" lon="13.425771204174852"><ele>79.5</ele><time>2026-04-03T18:07:14Z</time></trkpt><trkpt lat="43.53166661644635" lon="13.425818820747411"><ele>79.0</ele><time>2026-04-03T18:07:17Z</time></trkpt><trkpt lat="43.5317020540733" lon="13.425911335930422"><ele>78.5</ele><time>2026-04-03T18:07:20Z</time></trkpt><trkpt lat="43.531750664186816" lon="13.426005281543024"><ele>78.0</ele><time>2026-04-03T18:07:22Z</time></trkpt><trkpt lat="43.531878036043096" lon="13.426149204770544"><ele>78.0</ele><time>2026-04-03T18:07:25Z</time></trkpt><trkpt lat="43.531978163035674" lon="13.426248535538203"><ele>78.0</ele><time>2026-04-03T18:07:27Z</time></trkpt><trkpt lat="43.53205278911253" lon="13.426322568628503"><ele>78.0</ele><time>2026-04-03T18:07:29Z</time></trkpt><trkpt lat="43.53211380298939" lon="13.426393189766557"><ele>78.0</ele><time>2026-04-03T18:07:31Z</time></trkpt><trkpt lat="43.53218870686689" lon="13.426445014945344"><ele>78.0</ele><time>2026-04-03T18:07:33Z</time></trkpt><trkpt lat="43.53227419781873" lon="13.42646883298061"><ele>76.0</ele><time>2026-04-03T18:07:35Z</time></trkpt><trkpt lat="43.5323423045629" lon="13.426410932804854"><ele>76.0</ele><time>2026-04-03T18:07:37Z</time></trkpt><trkpt lat="43.53241798944904" lon="13.426265708899123"><ele>80.0</ele><time>2026-04-03T18:07:39Z</time></trkpt><trkpt lat="43.53245977677129" lon="13.42618859284458"><ele>80.0</ele><time>2026-04-03T18:07:40Z</time></trkpt><trkpt lat="43.532515692062944" lon="13.426140240883294"><ele>80.0</ele><time>2026-04-03T18:07:41Z</time></trkpt><trkpt lat="43.53257510270047" lon="13.426074424881271"><ele>80.0</ele><time>2026-04-03T18:07:43Z</time></trkpt></trkseg></trk></gpx>